Time,TemperatureF,DewpointF,PressureIn,WindDirection,WindDirectionDegrees,WindSpeedMPH,WindSpeedGustMPH,Humidity,HourlyPrecipIn,Conditions,Clouds,dailyrainin,SolarRadiationWatts/m^2,SoftwareType,DateUTC
2013-02-19 00:00:00,31.6,29.8,29.55,North,355,2.0,2.0,93,0.00,,,0.00,0,Wunderground v.1.15,2013-02-19 05:00:00,
2013-02-19 00:02:00,31.7,29.9,29.55,NNW,338,2.0,3.0,93,0.00,,,0.00,0,Wunderground v.1.15,2013-02-19 05:02:00,
2013-02-19 00:04:00,31.6,29.8,29.55,North,351,2.0,3.0,93,0.00,,,0.00,0,Wunderground v.1.15,2013-02-19 05:04:00,
2013-02-19 00:05:00,31.7,29.9,29.55,North,350,2.0,3.0,93,0.00,,,0.00,0,Wunderground v.1.15,2013-02-19 05:05:00,
2013-02-19 00:07:00,31.7,29.9,29.55,North,360,2.0,3.0,93,0.00,,,0.00,0,Wunderground v.1.15,2013-02-19 05:07:00,
2013-02-19 00:12:00,31.7,29.9,29.54,NNW,346,2.0,7.0,93,0.00,,,0.00,0,Wunderground v.1.15,2013-02-19 05:12:00,
2013-02-19 00:13:00,31.7,29.9,29.54,NNW,346,2.0,7.0,93,0.00,,,0.00,0,Wunderground v.1.15,2013-02-19 05:13:00,
2013-02-19 00:14:00,31.7,29.9,29.54,North,349,2.0,7.0,93,0.00,,,0.00,0,Wunderground v.1.15,2013-02-19 05:14:00,
2013-02-19 00:18:00,31.7,30.2,29.54,North,355,2.0,7.0,94,0.00,,,0.00,0,Wunderground v.1.15,2013-02-19 05:18:00,
2013-02-19 00:19:00,31.7,30.2,29.54,North,9,2.0,7.0,94,0.00,,,0.00,0,Wunderground v.1.15,2013-02-19 05:19:00,
2013-02-19 00:23:00,31.8,30.3,29.53,North,355,1.0,7.0,94,0.00,,,0.00,0,Wunderground v.1.15,2013-02-19 05:23:00,
2013-02-19 00:24:00,31.8,30.3,29.53,North,355,1.0,7.0,94,0.00,,,0.00,0,Wunderground v.1.15,2013-02-19 05:24:00,
2013-02-19 00:25:00,31.8,30.3,29.53,North,355,1.0,7.0,94,0.00,,,0.00,0,Wunderground v.1.15,2013-02-19 05:25:00,
2013-02-19 00:29:00,31.8,30.3,29.52,North,9,1.0,7.0,94,0.00,,,0.00,0,Wunderground v.1.15,2013-02-19 05:29:00,
2013-02-19 00:30:00,31.8,30.3,29.52,NNW,333,1.0,5.0,94,0.00,,,0.00,0,Wunderground v.1.15,2013-02-19 05:30:00,
2013-02-19 00:32:00,31.8,30.3,29.52,NNE,23,1.0,5.0,94,0.00,,,0.00,0,Wunderground v.1.15,2013-02-19 05:32:00,
2013-02-19 00:35:00,31.9,30.4,29.52,NNE,21,1.0,5.0,94,0.00,,,0.00,0,Wunderground v.1.15,2013-02-19 05:35:00,
2013-02-19 00:36:00,31.9,30.4,29.52,NNE,19,1.0,5.0,94,0.00,,,0.00,0,Wunderground v.1.15,2013-02-19 05:36:00,
2013-02-19 00:42:00,31.9,30.4,29.52,NNW,338,1.0,4.0,94,0.00,,,0.00,0,Wunderground v.1.15,2013-02-19 05:42:00,
2013-02-19 00:43:00,31.9,30.4,29.52,North,355,1.0,4.0,94,0.00,,,0.00,0,Wunderground v.1.15,2013-02-19 05:43:00,
2013-02-19 00:45:00,32.0,30.5,29.51,NNE,12,2.0,4.0,94,0.00,,,0.00,0,Wunderground v.1.15,2013-02-19 05:45:00,
2013-02-19 00:49:00,32.0,30.5,29.51,NNE,17,2.0,4.0,94,0.00,,,0.00,0,Wunderground v.1.15,2013-02-19 05:49:00,
2013-02-19 00:50:00,32.0,30.5,29.51,North,9,3.0,3.0,94,0.00,,,0.00,0,Wunderground v.1.15,2013-02-19 05:50:00,
2013-02-19 00:51:00,32.0,30.5,29.51,NNW,347,3.0,3.0,94,0.00,,,0.00,0,Wunderground v.1.15,2013-02-19 05:51:00,
2013-02-19 00:52:00,32.0,30.5,29.50,North,360,2.0,4.0,94,0.00,,,0.00,0,Wunderground v.1.15,2013-02-19 05:52:00,
2013-02-19 00:55:00,32.1,30.6,29.50,NNE,18,2.0,4.0,94,0.00,,,0.00,0,Wunderground v.1.15,2013-02-19 05:55:00,
2013-02-19 00:57:00,32.1,30.8,29.50,North,5,2.0,4.0,95,0.00,,,0.00,0,Wunderground v.1.15,2013-02-19 05:57:00,
2013-02-19 01:00:00,32.1,30.8,29.50,North,5,2.0,3.0,95,0.00,,,0.00,0,Wunderground v.1.15,2013-02-19 06:00:00,
2013-02-19 01:01:00,32.1,30.8,29.50,North,360,2.0,3.0,95,0.00,,,0.00,0,Wunderground v.1.15,2013-02-19 06:01:00,
2013-02-19 01:03:00,32.1,30.8,29.50,North,350,2.0,3.0,95,0.00,,,0.00,0,Wunderground v.1.15,2013-02-19 06:03:00,
2013-02-19 01:07:00,32.2,30.9,29.50,North,9,1.0,3.0,95,0.00,,,0.00,0,Wunderground v.1.15,2013-02-19 06:07:00,
2013-02-19 01:08:00,32.2,30.9,29.50,North,9,1.0,3.0,95,0.00,,,0.00,0,Wunderground v.1.15,2013-02-19 06:08:00,
2013-02-19 01:09:00,32.2,30.9,29.49,North,350,1.0,3.0,95,0.00,,,0.00,0,Wunderground v.1.15,2013-02-19 06:09:00,
2013-02-19 01:12:00,32.3,31.0,29.48,North,355,1.0,5.0,95,0.00,,,0.00,0,Wunderground v.1.15,2013-02-19 06:12:00,
2013-02-19 01:14:00,32.3,31.0,29.48,NNW,329,1.0,5.0,95,0.00,,,0.00,0,Wunderground v.1.15,2013-02-19 06:14:00,
2013-02-19 01:15:00,32.3,31.0,29.48,NNW,348,2.0,5.0,95,0.00,,,0.00,0,Wunderground v.1.15,2013-02-19 06:15:00,
2013-02-19 01:16:00,32.3,31.0,29.48,NNE,21,2.0,5.0,95,0.00,,,0.00,0,Wunderground v.1.15,2013-02-19 06:16:00,
2013-02-19 01:18:00,32.4,31.1,29.48,North,355,2.0,5.0,95,0.00,,,0.00,0,Wunderground v.1.15,2013-02-19 06:18:00,
2013-02-19 01:21:00,32.4,31.1,29.48,NNW,336,3.0,4.0,95,0.00,,,0.00,0,Wunderground v.1.15,2013-02-19 06:21:00,
2013-02-19 01:23:00,32.5,31.2,29.48,North,360,3.0,4.0,95,0.00,,,0.00,0,Wunderground v.1.15,2013-02-19 06:23:00,
2013-02-19 01:25:00,32.5,31.2,29.48,NNE,15,3.0,4.0,95,0.00,,,0.00,0,Wunderground v.1.15,2013-02-19 06:25:00,
2013-02-19 01:28:00,32.5,31.2,29.47,North,349,2.0,4.0,95,0.00,,,0.00,0,Wunderground v.1.15,2013-02-19 06:28:00,
2013-02-19 01:30:00,32.5,31.2,29.47,North,360,2.0,2.0,95,0.00,,,0.00,0,Wunderground v.1.15,2013-02-19 06:30:00,
2013-02-19 01:32:00,32.5,31.2,29.47,NNE,12,2.0,5.0,95,0.00,,,0.00,0,Wunderground v.1.15,2013-02-19 06:32:00,
2013-02-19 01:34:00,32.6,31.3,29.47,North,360,2.0,5.0,95,0.00,,,0.00,0,Wunderground v.1.15,2013-02-19 06:34:00,
2013-02-19 01:35:00,32.6,31.3,29.47,North,5,2.0,5.0,95,0.00,,,0.00,0,Wunderground v.1.15,2013-02-19 06:35:00,
2013-02-19 01:40:00,32.6,31.3,29.46,NNW,348,2.0,4.0,95,0.00,,,0.00,0,Wunderground v.1.15,2013-02-19 06:40:00,
2013-02-19 01:41:00,32.6,31.3,29.46,NNW,343,3.0,4.0,95,0.00,,,0.00,0,Wunderground v.1.15,2013-02-19 06:41:00,
2013-02-19 01:43:00,32.7,31.4,29.46,North,11,3.0,4.0,95,0.00,,,0.00,0,Wunderground v.1.15,2013-02-19 06:43:00,
2013-02-19 01:48:00,32.7,31.4,29.46,NNW,346,3.0,5.0,95,0.00,,,0.00,0,Wunderground v.1.15,2013-02-19 06:48:00,
2013-02-19 01:49:00,32.7,31.4,29.46,North,5,2.0,5.0,95,0.00,,,0.00,0,Wunderground v.1.15,2013-02-19 06:49:00,
2013-02-19 01:50:00,32.7,31.4,29.46,NNW,346,2.0,3.0,95,0.00,,,0.00,0,Wunderground v.1.15,2013-02-19 06:50:00,
2013-02-19 01:51:00,32.7,31.4,29.46,North,351,2.0,3.0,95,0.00,,,0.00,0,Wunderground v.1.15,2013-02-19 06:51:00,
2013-02-19 01:56:00,32.8,31.8,29.45,North,11,2.0,3.0,96,0.00,,,0.00,0,Wunderground v.1.15,2013-02-19 06:56:00,
2013-02-19 01:58:00,32.7,31.7,29.45,NNE,16,2.0,3.0,96,0.00,,,0.00,0,Wunderground v.1.15,2013-02-19 06:58:00,
2013-02-19 02:00:00,32.7,31.7,29.45,NNE,22,2.0,4.0,96,0.00,,,0.00,0,Wunderground v.1.15,2013-02-19 07:00:00,
2013-02-19 02:01:00,32.7,31.7,29.45,North,5,2.0,4.0,96,0.00,,,0.00,0,Wunderground v.1.15,2013-02-19 07:01:00,
2013-02-19 02:03:00,32.8,31.8,29.44,North,5,2.0,4.0,96,0.00,,,0.00,0,Wunderground v.1.15,2013-02-19 07:03:00,
2013-02-19 02:07:00,32.8,31.8,29.44,NNW,342,2.0,8.0,96,0.00,,,0.00,0,Wunderground v.1.15,2013-02-19 07:07:00,
2013-02-19 02:09:00,32.7,31.7,29.44,NNW,342,2.0,8.0,96,0.00,,,0.00,0,Wunderground v.1.15,2013-02-19 07:09:00,
2013-02-19 02:11:00,32.7,31.7,29.44,NNW,340,2.0,3.0,96,0.00,,,0.00,0,Wunderground v.1.15,2013-02-19 07:11:00,
2013-02-19 02:15:00,32.7,31.7,29.44,NNW,348,1.0,4.0,96,0.00,,,0.00,0,Wunderground v.1.15,2013-02-19 07:15:00,
2013-02-19 02:16:00,32.7,31.7,29.43,NNW,345,1.0,4.0,96,0.00,,,0.00,0,Wunderground v.1.15,2013-02-19 07:16:00,
2013-02-19 02:18:00,32.6,31.6,29.43,North,355,2.0,4.0,96,0.00,,,0.00,0,Wunderground v.1.15,2013-02-19 07:18:00,
2013-02-19 02:21:00,32.6,31.6,29.43,North,355,2.0,7.0,96,0.00,,,0.00,0,Wunderground v.1.15,2013-02-19 07:21:00,
2013-02-19 02:24:00,32.5,31.2,29.42,NNW,348,2.0,7.0,95,0.00,,,0.00,0,Wunderground v.1.15,2013-02-19 07:24:00,
2013-02-19 02:27:00,32.4,31.1,29.42,NNE,12,2.0,7.0,95,0.00,,,0.00,0,Wunderground v.1.15,2013-02-19 07:27:00,
2013-02-19 02:28:00,32.3,31.0,29.42,North,355,2.0,7.0,95,0.00,,,0.00,0,Wunderground v.1.15,2013-02-19 07:28:00,
2013-02-19 02:29:00,32.3,31.0,29.42,NNW,346,2.0,7.0,95,0.00,,,0.00,0,Wunderground v.1.15,2013-02-19 07:29:00,
2013-02-19 02:30:00,32.3,31.0,29.42,North,350,2.0,2.0,95,0.00,,,0.00,0,Wunderground v.1.15,2013-02-19 07:30:00,
2013-02-19 02:32:00,32.2,31.2,29.42,NNW,346,2.0,4.0,96,0.00,,,0.00,0,Wunderground v.1.15,2013-02-19 07:32:00,
2013-02-19 02:34:00,32.1,31.1,29.41,NNW,348,2.0,5.0,96,0.00,,,0.00,0,Wunderground v.1.15,2013-02-19 07:34:00,
2013-02-19 02:36:00,32.1,31.1,29.41,NNE,19,2.0,5.0,96,0.00,,,0.00,0,Wunderground v.1.15,2013-02-19 07:36:00,
2013-02-19 02:37:00,32.0,31.0,29.41,NNE,24,2.0,5.0,96,0.00,,,0.00,0,Wunderground v.1.15,2013-02-19 07:37:00,
2013-02-19 02:39:00,32.0,31.0,29.41,NNW,336,1.0,7.0,96,0.00,,,0.00,0,Wunderground v.1.15,2013-02-19 07:39:00,
2013-02-19 02:44:00,31.8,30.5,29.40,North,355,2.0,7.0,95,0.00,,,0.00,0,Wunderground v.1.15,2013-02-19 07:44:00,
2013-02-19 02:45:00,31.8,30.5,29.40,NNW,342,2.0,7.0,95,0.00,,,0.00,0,Wunderground v.1.15,2013-02-19 07:45:00,
2013-02-19 02:47:00,31.7,30.4,29.40,NNW,342,3.0,7.0,95,0.00,,,0.00,0,Wunderground v.1.15,2013-02-19 07:47:00,
2013-02-19 02:51:00,31.6,30.6,29.40,North,350,3.0,5.0,96,0.00,,,0.00,0,Wunderground v.1.15,2013-02-19 07:51:00,
2013-02-19 02:53:00,31.6,30.6,29.39,NW,325,3.0,5.0,96,0.00,,,0.00,0,Wunderground v.1.15,2013-02-19 07:53:00,
2013-02-19 02:55:00,31.6,30.6,29.39,North,360,2.0,5.0,96,0.00,,,0.00,0,Wunderground v.1.15,2013-02-19 07:55:00,
2013-02-19 02:56:00,31.6,30.6,29.39,North,355,2.0,5.0,96,0.00,,,0.00,0,Wunderground v.1.15,2013-02-19 07:56:00,
2013-02-19 03:01:00,31.6,30.6,29.39,NNE,15,2.0,3.0,96,0.00,,,0.00,0,Wunderground v.1.15,2013-02-19 08:01:00,
2013-02-19 03:02:00,31.6,30.6,29.39,NNW,348,2.0,3.0,96,0.00,,,0.00,0,Wunderground v.1.15,2013-02-19 08:02:00,
2013-02-19 03:06:00,31.6,30.6,29.39,North,355,2.0,3.0,96,0.00,,,0.00,0,Wunderground v.1.15,2013-02-19 08:06:00,
2013-02-19 03:07:00,31.6,30.6,29.39,North,351,2.0,3.0,96,0.00,,,0.00,0,Wunderground v.1.15,2013-02-19 08:07:00,
2013-02-19 03:11:00,31.6,30.6,29.38,NE,36,2.0,4.0,96,0.00,,,0.00,0,Wunderground v.1.15,2013-02-19 08:11:00,
2013-02-19 03:14:00,31.6,30.6,29.38,North,355,3.0,5.0,96,0.00,,,0.00,0,Wunderground v.1.15,2013-02-19 08:14:00,
2013-02-19 03:17:00,31.7,30.7,29.38,North,355,2.0,5.0,96,0.00,,,0.00,0,Wunderground v.1.15,2013-02-19 08:17:00,
2013-02-19 03:19:00,31.7,30.7,29.37,North,355,3.0,5.0,96,0.00,,,0.00,0,Wunderground v.1.15,2013-02-19 08:19:00,
2013-02-19 03:20:00,31.7,30.7,29.38,NNW,347,3.0,6.0,96,0.00,,,0.00,0,Wunderground v.1.15,2013-02-19 08:20:00,
2013-02-19 03:23:00,31.7,30.7,29.37,NNW,347,2.0,6.0,96,0.00,,,0.00,0,Wunderground v.1.15,2013-02-19 08:23:00,
2013-02-19 03:24:00,31.7,30.7,29.37,NNW,348,2.0,6.0,96,0.00,,,0.00,0,Wunderground v.1.15,2013-02-19 08:24:00,
2013-02-19 03:25:00,31.7,30.7,29.37,North,5,2.0,6.0,96,0.00,,,0.00,0,Wunderground v.1.15,2013-02-19 08:25:00,
2013-02-19 03:27:00,31.8,30.8,29.37,North,355,2.0,6.0,96,0.00,,,0.00,0,Wunderground v.1.15,2013-02-19 08:27:00,
2013-02-19 03:29:00,31.8,30.8,29.37,North,5,2.0,6.0,96,0.00,,,0.00,0,Wunderground v.1.15,2013-02-19 08:29:00,
2013-02-19 03:32:00,31.8,30.8,29.36,NNE,15,2.0,4.0,96,0.00,,,0.00,0,Wunderground v.1.15,2013-02-19 08:32:00,
2013-02-19 03:35:00,31.9,30.9,29.36,North,9,2.0,4.0,96,0.00,,,0.00,0,Wunderground v.1.15,2013-02-19 08:35:00,
2013-02-19 03:36:00,31.9,30.9,29.36,NNW,340,2.0,4.0,96,0.00,,,0.00,0,Wunderground v.1.15,2013-02-19 08:36:00,
2013-02-19 03:39:00,31.9,30.9,29.36,NNW,332,2.0,4.0,96,0.00,,,0.00,0,Wunderground v.1.15,2013-02-19 08:39:00,
2013-02-19 03:42:00,31.9,30.9,29.36,NNW,334,2.0,4.0,96,0.00,,,0.00,0,Wunderground v.1.15,2013-02-19 08:42:00,
2013-02-19 03:47:00,32.0,31.0,29.35,North,355,2.0,4.0,96,0.00,,,0.00,0,Wunderground v.1.15,2013-02-19 08:47:00,
2013-02-19 03:49:00,32.0,31.0,29.35,North,349,2.0,4.0,96,0.00,,,0.00,0,Wunderground v.1.15,2013-02-19 08:49:00,
2013-02-19 03:54:00,32.1,31.1,29.34,North,360,1.0,3.0,96,0.00,,,0.00,0,Wunderground v.1.15,2013-02-19 08:54:00,
2013-02-19 03:55:00,32.1,31.1,29.34,North,11,1.0,3.0,96,0.00,,,0.00,0,Wunderground v.1.15,2013-02-19 08:55:00,
2013-02-19 03:56:00,32.1,31.1,29.34,SSE,153,1.0,3.0,96,0.00,,,0.00,0,Wunderground v.1.15,2013-02-19 08:56:00,
2013-02-19 03:58:00,32.2,31.2,29.34,NNE,15,1.0,3.0,96,0.00,,,0.00,0,Wunderground v.1.15,2013-02-19 08:58:00,
2013-02-19 04:01:00,32.2,31.2,29.34,North,360,1.0,4.0,96,0.00,,,0.00,0,Wunderground v.1.15,2013-02-19 09:01:00,
2013-02-19 04:02:00,32.3,31.3,29.34,North,5,1.0,4.0,96,0.00,,,0.00,0,Wunderground v.1.15,2013-02-19 09:02:00,
2013-02-19 04:03:00,32.3,31.3,29.34,NNE,20,2.0,4.0,96,0.00,,,0.00,0,Wunderground v.1.15,2013-02-19 09:03:00,
2013-02-19 04:06:00,32.4,31.4,29.33,NNW,346,2.0,4.0,96,0.00,,,0.00,0,Wunderground v.1.15,2013-02-19 09:06:00,
2013-02-19 04:09:00,32.5,31.5,29.33,North,355,2.0,4.0,96,0.00,,,0.00,0,Wunderground v.1.15,2013-02-19 09:09:00,
2013-02-19 04:10:00,32.5,31.7,29.33,North,355,2.0,2.0,97,0.00,,,0.00,0,Wunderground v.1.15,2013-02-19 09:10:00,
2013-02-19 04:11:00,32.5,31.7,29.33,NNE,16,2.0,3.0,97,0.00,,,0.00,0,Wunderground v.1.15,2013-02-19 09:11:00,
2013-02-19 04:15:00,32.6,31.8,29.33,NNE,18,1.0,3.0,97,0.00,,,0.00,0,Wunderground v.1.15,2013-02-19 09:15:00,
2013-02-19 04:17:00,32.6,31.8,29.32,NNE,19,0.0,3.0,97,0.00,,,0.00,0,Wunderground v.1.15,2013-02-19 09:17:00,
2013-02-19 04:18:00,32.6,31.6,29.32,NNE,19,1.0,3.0,96,0.00,,,0.00,0,Wunderground v.1.15,2013-02-19 09:18:00,
2013-02-19 04:19:00,32.7,31.7,29.32,NNW,348,0.0,3.0,96,0.00,,,0.00,0,Wunderground v.1.15,2013-02-19 09:19:00,
2013-02-19 04:23:00,32.7,31.7,29.31,NNW,345,1.0,6.0,96,0.00,,,0.00,0,Wunderground v.1.15,2013-02-19 09:23:00,
2013-02-19 04:25:00,32.7,31.9,29.31,NNW,348,1.0,6.0,97,0.00,,,0.00,0,Wunderground v.1.15,2013-02-19 09:25:00,
2013-02-19 04:27:00,32.7,31.9,29.31,NNE,13,2.0,6.0,97,0.00,,,0.00,0,Wunderground v.1.15,2013-02-19 09:27:00,
2013-02-19 04:28:00,32.8,32.0,29.31,NNE,14,2.0,6.0,97,0.00,,,0.00,0,Wunderground v.1.15,2013-02-19 09:28:00,
2013-02-19 04:29:00,32.8,32.0,29.31,North,360,2.0,6.0,97,0.00,,,0.00,0,Wunderground v.1.15,2013-02-19 09:29:00,
2013-02-19 04:32:00,32.8,32.0,29.31,NNW,338,3.0,3.0,97,0.00,,,0.00,0,Wunderground v.1.15,2013-02-19 09:32:00,
2013-02-19 04:34:00,32.8,31.8,29.30,North,10,2.0,4.0,96,0.00,,,0.00,0,Wunderground v.1.15,2013-02-19 09:34:00,
2013-02-19 04:37:00,32.9,31.9,29.30,North,11,2.0,4.0,96,0.00,,,0.00,0,Wunderground v.1.15,2013-02-19 09:37:00,
2013-02-19 04:38:00,32.9,31.9,29.30,North,355,2.0,4.0,96,0.00,,,0.00,0,Wunderground v.1.15,2013-02-19 09:38:00,
2013-02-19 04:39:00,32.9,31.9,29.30,NNW,342,2.0,4.0,96,0.00,,,0.00,0,Wunderground v.1.15,2013-02-19 09:39:00,
2013-02-19 04:44:00,33.0,32.2,29.29,North,5,1.0,3.0,97,0.00,,,0.00,0,Wunderground v.1.15,2013-02-19 09:44:00,
2013-02-19 04:45:00,33.0,32.2,29.29,North,355,0.0,3.0,97,0.00,,,0.00,0,Wunderground v.1.15,2013-02-19 09:45:00,
2013-02-19 04:46:00,33.0,32.2,29.29,North,5,0.0,3.0,97,0.00,,,0.00,0,Wunderground v.1.15,2013-02-19 09:46:00,
2013-02-19 04:49:00,33.0,32.2,29.29,North,5,0.0,3.0,97,0.00,,,0.00,0,Wunderground v.1.15,2013-02-19 09:49:00,
2013-02-19 04:51:00,33.0,32.2,29.29,North,5,0.0,3.0,97,0.00,,,0.00,0,Wunderground v.1.15,2013-02-19 09:51:00,
2013-02-19 04:53:00,33.0,32.2,29.29,NNE,17,0.0,3.0,97,0.00,,,0.00,0,Wunderground v.1.15,2013-02-19 09:53:00,
2013-02-19 04:55:00,33.0,32.2,29.29,North,360,0.0,3.0,97,0.00,,,0.00,0,Wunderground v.1.15,2013-02-19 09:55:00,
2013-02-19 04:57:00,33.0,32.2,29.29,North,10,0.0,3.0,97,0.00,,,0.00,0,Wunderground v.1.15,2013-02-19 09:57:00,
2013-02-19 05:01:00,33.1,32.3,29.28,NNE,13,0.0,3.0,97,0.00,,,0.00,0,Wunderground v.1.15,2013-02-19 10:01:00,
2013-02-19 05:02:00,33.1,32.3,29.28,North,11,0.0,3.0,97,0.00,,,0.00,0,Wunderground v.1.15,2013-02-19 10:02:00,
2013-02-19 05:03:00,33.1,32.3,29.28,NE,38,0.0,3.0,97,0.00,,,0.00,0,Wunderground v.1.15,2013-02-19 10:03:00,
2013-02-19 05:06:00,33.2,32.4,29.28,NNE,16,0.0,3.0,97,0.00,,,0.00,0,Wunderground v.1.15,2013-02-19 10:06:00,
2013-02-19 05:08:00,33.2,32.4,29.28,NNW,346,0.0,3.0,97,0.00,,,0.00,0,Wunderground v.1.15,2013-02-19 10:08:00,
2013-02-19 05:09:00,33.2,32.4,29.28,North,350,0.0,3.0,97,0.00,,,0.00,0,Wunderground v.1.15,2013-02-19 10:09:00,
2013-02-19 05:10:00,33.2,32.4,29.28,North,9,0.0,3.0,97,0.00,,,0.00,0,Wunderground v.1.15,2013-02-19 10:10:00,
2013-02-19 05:15:00,33.2,32.4,29.27,North,355,0.0,3.0,97,0.00,,,0.00,0,Wunderground v.1.15,2013-02-19 10:15:00,
2013-02-19 05:16:00,33.2,32.4,29.27,North,360,0.0,3.0,97,0.00,,,0.00,0,Wunderground v.1.15,2013-02-19 10:16:00,
2013-02-19 05:17:00,33.2,32.4,29.27,North,360,0.0,3.0,97,0.00,,,0.00,0,Wunderground v.1.15,2013-02-19 10:17:00,
2013-02-19 05:22:00,33.2,32.4,29.27,North,355,0.0,3.0,97,0.00,,,0.00,0,Wunderground v.1.15,2013-02-19 10:22:00,
2013-02-19 05:23:00,33.2,32.4,29.26,NW,325,0.0,3.0,97,0.00,,,0.00,0,Wunderground v.1.15,2013-02-19 10:23:00,
2013-02-19 05:24:00,33.2,32.4,29.26,North,5,0.0,3.0,97,0.00,,,0.00,0,Wunderground v.1.15,2013-02-19 10:24:00,
2013-02-19 05:27:00,33.3,32.5,29.26,NNE,31,0.0,3.0,97,0.00,,,0.00,0,Wunderground v.1.15,2013-02-19 10:27:00,
2013-02-19 05:31:00,33.3,32.5,29.26,North,355,0.0,3.0,97,0.00,,,0.00,0,Wunderground v.1.15,2013-02-19 10:31:00,
2013-02-19 05:33:00,33.3,32.5,29.26,North,350,0.0,3.0,97,0.00,,,0.00,0,Wunderground v.1.15,2013-02-19 10:33:00,
2013-02-19 05:36:00,33.2,32.4,29.25,NNE,13,0.0,3.0,97,0.00,,,0.00,0,Wunderground v.1.15,2013-02-19 10:36:00,
2013-02-19 05:39:00,33.3,32.5,29.25,North,5,0.0,3.0,97,0.00,,,0.00,0,Wunderground v.1.15,2013-02-19 10:39:00,
2013-02-19 05:42:00,33.3,32.5,29.25,NNW,344,0.0,3.0,97,0.00,,,0.00,0,Wunderground v.1.15,2013-02-19 10:42:00,
2013-02-19 05:45:00,33.3,32.5,29.25,NNW,347,0.0,3.0,97,0.00,,,0.00,0,Wunderground v.1.15,2013-02-19 10:45:00,
2013-02-19 05:47:00,33.3,32.5,29.25,North,355,0.0,3.0,97,0.00,,,0.00,0,Wunderground v.1.15,2013-02-19 10:47:00,
2013-02-19 05:49:00,33.3,32.5,29.25,NNE,30,0.0,3.0,97,0.00,,,0.00,0,Wunderground v.1.15,2013-02-19 10:49:00,
2013-02-19 05:54:00,33.3,32.5,29.24,NNW,345,0.0,3.0,97,0.00,,,0.00,0,Wunderground v.1.15,2013-02-19 10:54:00,
2013-02-19 05:55:00,33.3,32.5,29.24,North,11,0.0,3.0,97,0.00,,,0.00,0,Wunderground v.1.15,2013-02-19 10:55:00,
2013-02-19 05:58:00,33.3,32.5,29.24,North,5,0.0,3.0,97,0.00,,,0.00,0,Wunderground v.1.15,2013-02-19 10:58:00,
2013-02-19 06:01:00,33.3,32.5,29.23,North,5,0.0,3.0,97,0.00,,,0.00,0,Wunderground v.1.15,2013-02-19 11:01:00,
2013-02-19 06:04:00,33.3,32.5,29.23,North,355,0.0,3.0,97,0.00,,,0.00,0,Wunderground v.1.15,2013-02-19 11:04:00,
2013-02-19 06:07:00,33.3,32.5,29.23,NNE,17,0.0,3.0,97,0.00,,,0.00,0,Wunderground v.1.15,2013-02-19 11:07:00,
2013-02-19 06:09:00,33.3,32.5,29.23,NNE,16,0.0,3.0,97,0.00,,,0.00,0,Wunderground v.1.15,2013-02-19 11:09:00,
2013-02-19 06:10:00,33.3,32.5,29.23,NNE,18,0.0,3.0,97,0.00,,,0.00,0,Wunderground v.1.15,2013-02-19 11:10:00,
2013-02-19 06:12:00,33.3,32.5,29.23,North,355,0.0,3.0,97,0.00,,,0.00,0,Wunderground v.1.15,2013-02-19 11:12:00,
2013-02-19 06:15:00,33.2,32.4,29.22,North,360,0.0,3.0,97,0.00,,,0.00,0,Wunderground v.1.15,2013-02-19 11:15:00,
2013-02-19 06:20:00,33.2,32.4,29.22,NNE,26,0.0,3.0,97,0.00,,,0.00,0,Wunderground v.1.15,2013-02-19 11:20:00,
2013-02-19 06:24:00,33.2,32.4,29.22,North,355,0.0,3.0,97,0.00,,,0.00,0,Wunderground v.1.15,2013-02-19 11:24:00,
2013-02-19 06:26:00,33.3,32.5,29.22,North,355,0.0,3.0,97,0.00,,,0.00,0,Wunderground v.1.15,2013-02-19 11:26:00,
2013-02-19 06:27:00,33.3,32.5,29.22,NNE,22,0.0,3.0,97,0.00,,,0.00,0,Wunderground v.1.15,2013-02-19 11:27:00,
2013-02-19 06:29:00,33.3,32.5,29.22,North,355,0.0,3.0,97,0.00,,,0.00,0,Wunderground v.1.15,2013-02-19 11:29:00,
2013-02-19 06:31:00,33.3,32.5,29.22,North,355,0.0,3.0,97,0.00,,,0.00,0,Wunderground v.1.15,2013-02-19 11:31:00,
2013-02-19 06:33:00,33.3,32.5,29.22,NNE,19,0.0,3.0,97,0.00,,,0.00,0,Wunderground v.1.15,2013-02-19 11:33:00,
2013-02-19 06:35:00,33.3,32.5,29.21,NNE,26,0.0,3.0,97,0.00,,,0.00,0,Wunderground v.1.15,2013-02-19 11:35:00,
2013-02-19 06:38:00,33.3,32.5,29.21,ENE,74,0.0,3.0,97,0.00,,,0.00,0,Wunderground v.1.15,2013-02-19 11:38:00,
2013-02-19 06:42:00,33.3,32.5,29.20,NNW,329,0.0,3.0,97,0.00,,,0.00,0,Wunderground v.1.15,2013-02-19 11:42:00,
2013-02-19 06:43:00,33.3,32.5,29.20,NNW,331,0.0,3.0,97,0.00,,,0.00,0,Wunderground v.1.15,2013-02-19 11:43:00,
2013-02-19 06:46:00,33.3,32.5,29.20,North,5,0.0,3.0,97,0.00,,,0.00,0,Wunderground v.1.15,2013-02-19 11:46:00,
2013-02-19 06:47:00,33.3,32.5,29.20,North,351,0.0,3.0,97,0.00,,,0.00,0,Wunderground v.1.15,2013-02-19 11:47:00,
2013-02-19 06:49:00,33.3,32.5,29.20,North,11,0.0,3.0,97,0.00,,,0.00,0,Wunderground v.1.15,2013-02-19 11:49:00,
2013-02-19 06:52:00,33.3,32.5,29.20,North,5,0.0,3.0,97,0.00,,,0.00,0,Wunderground v.1.15,2013-02-19 11:52:00,
2013-02-19 06:53:00,33.3,32.5,29.20,North,5,0.0,3.0,97,0.00,,,0.00,0,Wunderground v.1.15,2013-02-19 11:53:00,
2013-02-19 06:55:00,33.3,32.5,29.20,North,355,0.0,3.0,97,0.00,,,0.00,0,Wunderground v.1.15,2013-02-19 11:55:00,
2013-02-19 06:58:00,33.3,32.5,29.20,NNE,28,0.0,3.0,97,0.00,,,0.00,0,Wunderground v.1.15,2013-02-19 11:58:00,
2013-02-19 06:59:00,33.3,32.5,29.20,NNE,28,0.0,3.0,97,0.00,,,0.00,0,Wunderground v.1.15,2013-02-19 11:59:00,
2013-02-19 07:00:00,33.3,32.5,29.20,NNE,28,0.0,3.0,97,0.00,,,0.00,0,Wunderground v.1.15,2013-02-19 12:00:00,
2013-02-19 07:03:00,33.3,32.5,29.19,North,355,0.0,3.0,97,0.00,,,0.00,0,Wunderground v.1.15,2013-02-19 12:03:00,
2013-02-19 07:07:00,33.4,32.6,29.19,NNE,33,0.0,3.0,97,0.00,,,0.00,0,Wunderground v.1.15,2013-02-19 12:07:00,
2013-02-19 07:08:00,33.3,32.5,29.19,NNW,328,0.0,3.0,97,0.00,,,0.00,0,Wunderground v.1.15,2013-02-19 12:08:00,
2013-02-19 07:09:00,33.3,32.5,29.19,NE,34,0.0,3.0,97,0.00,,,0.00,0,Wunderground v.1.15,2013-02-19 12:09:00,
2013-02-19 07:14:00,33.4,32.6,29.19,North,355,0.0,3.0,97,0.00,,,0.00,0,Wunderground v.1.15,2013-02-19 12:14:00,
2013-02-19 07:15:00,33.4,32.6,29.19,North,355,0.0,3.0,97,0.00,,,0.00,0,Wunderground v.1.15,2013-02-19 12:15:00,
2013-02-19 07:20:00,33.3,32.5,29.18,North,360,0.0,3.0,97,0.00,,,0.00,0,Wunderground v.1.15,2013-02-19 12:20:00,
2013-02-19 07:21:00,33.3,32.5,29.18,NNW,348,0.0,3.0,97,0.00,,,0.00,0,Wunderground v.1.15,2013-02-19 12:21:00,
2013-02-19 07:24:00,33.3,32.5,29.18,NNE,29,0.0,3.0,97,0.00,,,0.00,0,Wunderground v.1.15,2013-02-19 12:24:00,
2013-02-19 07:27:00,33.3,32.5,29.18,NNW,327,0.0,3.0,97,0.00,,,0.00,0,Wunderground v.1.15,2013-02-19 12:27:00,
2013-02-19 07:33:00,33.3,32.5,29.18,NNW,346,0.0,3.0,97,0.00,,,0.00,0,Wunderground v.1.15,2013-02-19 12:33:00,
2013-02-19 07:34:00,33.3,32.5,29.18,NNW,346,0.0,3.0,97,0.00,,,0.00,0,Wunderground v.1.15,2013-02-19 12:34:00,
2013-02-19 07:37:00,33.3,32.5,29.18,NNW,346,0.0,3.0,97,0.00,,,0.00,0,Wunderground v.1.15,2013-02-19 12:37:00,
2013-02-19 07:40:00,33.3,32.5,29.17,North,360,0.0,3.0,97,0.00,,,0.00,0,Wunderground v.1.15,2013-02-19 12:40:00,
2013-02-19 07:44:00,33.3,32.5,29.17,NW,310,0.0,3.0,97,0.00,,,0.00,0,Wunderground v.1.15,2013-02-19 12:44:00,
2013-02-19 07:45:00,33.3,32.5,29.17,NNW,346,0.0,3.0,97,0.00,,,0.00,0,Wunderground v.1.15,2013-02-19 12:45:00,
2013-02-19 07:50:00,33.3,32.5,29.17,North,5,0.0,3.0,97,0.00,,,0.00,0,Wunderground v.1.15,2013-02-19 12:50:00,
2013-02-19 07:51:00,33.3,32.5,29.17,North,5,0.0,3.0,97,0.00,,,0.00,0,Wunderground v.1.15,2013-02-19 12:51:00,
2013-02-19 07:53:00,33.3,32.5,29.17,North,5,0.0,3.0,97,0.00,,,0.00,0,Wunderground v.1.15,2013-02-19 12:53:00,
2013-02-19 07:57:00,33.4,32.6,29.17,North,350,0.0,3.0,97,0.00,,,0.00,0,Wunderground v.1.15,2013-02-19 12:57:00,
2013-02-19 07:59:00,33.4,32.6,29.17,NNE,26,0.0,3.0,97,0.00,,,0.00,0,Wunderground v.1.15,2013-02-19 12:59:00,
2013-02-19 08:00:00,33.4,32.6,29.17,NNE,26,0.0,3.0,97,0.00,,,0.00,0,Wunderground v.1.15,2013-02-19 13:00:00,
2013-02-19 08:02:00,33.4,32.6,29.17,North,9,0.0,3.0,97,0.00,,,0.00,0,Wunderground v.1.15,2013-02-19 13:02:00,
2013-02-19 08:06:00,33.3,32.5,29.17,NNE,21,0.0,3.0,97,0.00,,,0.00,0,Wunderground v.1.15,2013-02-19 13:06:00,
2013-02-19 08:08:00,33.3,32.5,29.17,NNW,329,0.0,3.0,97,0.00,,,0.00,0,Wunderground v.1.15,2013-02-19 13:08:00,
2013-02-19 08:13:00,33.4,32.6,29.17,North,5,0.0,3.0,97,0.00,,,0.00,0,Wunderground v.1.15,2013-02-19 13:13:00,
2013-02-19 08:14:00,33.4,32.6,29.16,North,5,0.0,3.0,97,0.00,,,0.00,0,Wunderground v.1.15,2013-02-19 13:14:00,
2013-02-19 08:17:00,33.3,32.5,29.16,NNE,12,0.0,3.0,97,0.00,,,0.00,0,Wunderground v.1.15,2013-02-19 13:17:00,
2013-02-19 08:20:00,33.3,32.5,29.16,NNW,329,0.0,3.0,97,0.00,,,0.00,0,Wunderground v.1.15,2013-02-19 13:20:00,
2013-02-19 08:23:00,33.3,32.5,29.16,NNW,348,0.0,3.0,97,0.00,,,0.00,0,Wunderground v.1.15,2013-02-19 13:23:00,
2013-02-19 08:26:00,33.4,32.6,29.16,North,11,0.0,3.0,97,0.00,,,0.00,0,Wunderground v.1.15,2013-02-19 13:26:00,
2013-02-19 08:29:00,33.4,32.6,29.16,North,10,0.0,3.0,97,0.00,,,0.00,0,Wunderground v.1.15,2013-02-19 13:29:00,
2013-02-19 08:30:00,33.4,32.6,29.16,North,10,0.0,3.0,97,0.00,,,0.00,0,Wunderground v.1.15,2013-02-19 13:30:00,
2013-02-19 08:31:00,33.4,32.6,29.16,North,10,0.0,3.0,97,0.00,,,0.00,0,Wunderground v.1.15,2013-02-19 13:31:00,
2013-02-19 08:35:00,33.4,32.6,29.16,NNE,28,0.0,3.0,97,0.00,,,0.00,0,Wunderground v.1.15,2013-02-19 13:35:00,
2013-02-19 08:36:00,33.3,32.5,29.16,North,5,0.0,3.0,97,0.00,,,0.00,0,Wunderground v.1.15,2013-02-19 13:36:00,
2013-02-19 08:40:00,33.4,32.6,29.16,North,10,0.0,3.0,97,0.00,,,0.00,0,Wunderground v.1.15,2013-02-19 13:40:00,
2013-02-19 08:41:00,33.4,32.6,29.16,North,9,0.0,3.0,97,0.00,,,0.00,0,Wunderground v.1.15,2013-02-19 13:41:00,
2013-02-19 08:45:00,33.4,32.6,29.16,North,9,0.0,3.0,97,0.00,,,0.00,0,Wunderground v.1.15,2013-02-19 13:45:00,
2013-02-19 08:48:00,33.3,32.5,29.16,North,9,0.0,3.0,97,0.00,,,0.00,0,Wunderground v.1.15,2013-02-19 13:48:00,
2013-02-19 08:49:00,33.4,32.6,29.16,North,9,0.0,3.0,97,0.00,,,0.00,0,Wunderground v.1.15,2013-02-19 13:49:00,
2013-02-19 08:52:00,33.4,32.6,29.16,North,350,0.0,3.0,97,0.00,,,0.00,0,Wunderground v.1.15,2013-02-19 13:52:00,
2013-02-19 08:55:00,33.4,32.6,29.16,North,350,0.0,3.0,97,0.00,,,0.00,0,Wunderground v.1.15,2013-02-19 13:55:00,
2013-02-19 08:57:00,33.4,32.6,29.16,North,350,0.0,3.0,97,0.00,,,0.00,0,Wunderground v.1.15,2013-02-19 13:57:00,
2013-02-19 08:59:00,33.4,32.6,29.16,North,350,0.0,3.0,97,0.00,,,0.00,0,Wunderground v.1.15,2013-02-19 13:59:00,
2013-02-19 09:01:00,33.4,32.6,29.16,NE,52,0.0,3.0,97,0.00,,,0.00,0,Wunderground v.1.15,2013-02-19 14:01:00,
2013-02-19 09:04:00,33.4,32.6,29.15,NE,52,0.0,3.0,97,0.00,,,0.00,0,Wunderground v.1.15,2013-02-19 14:04:00,
2013-02-19 09:05:00,33.4,32.6,29.15,NE,52,0.0,3.0,97,0.00,,,0.00,0,Wunderground v.1.15,2013-02-19 14:05:00,
2013-02-19 09:06:00,33.4,32.6,29.15,NE,52,0.0,3.0,97,0.00,,,0.00,0,Wunderground v.1.15,2013-02-19 14:06:00,
2013-02-19 09:11:00,33.4,32.6,29.15,NE,52,0.0,3.0,97,0.00,,,0.00,5,Wunderground v.1.15,2013-02-19 14:11:00,
2013-02-19 09:13:00,33.4,32.6,29.15,North,9,0.0,3.0,97,0.00,,,0.00,5,Wunderground v.1.15,2013-02-19 14:13:00,
2013-02-19 09:14:00,33.4,32.6,29.15,North,9,0.0,3.0,97,0.00,,,0.00,5,Wunderground v.1.15,2013-02-19 14:14:00,
2013-02-19 09:16:00,33.4,32.6,29.15,NNW,348,0.0,3.0,97,0.00,,,0.00,0,Wunderground v.1.15,2013-02-19 14:16:00,
2013-02-19 09:18:00,33.4,32.6,29.15,North,349,0.0,3.0,97,0.00,,,0.00,0,Wunderground v.1.15,2013-02-19 14:18:00,
2013-02-19 09:19:00,33.4,32.6,29.15,North,350,0.0,3.0,97,0.00,,,0.00,0,Wunderground v.1.15,2013-02-19 14:19:00,
2013-02-19 09:24:00,33.4,32.6,29.15,North,350,0.0,3.0,97,0.00,,,0.00,0,Wunderground v.1.15,2013-02-19 14:24:00,
2013-02-19 09:27:00,33.4,32.6,29.15,North,350,0.0,3.0,97,0.00,,,0.00,5,Wunderground v.1.15,2013-02-19 14:27:00,
2013-02-19 09:28:00,33.4,32.6,29.15,North,350,0.0,3.0,97,0.00,,,0.00,5,Wunderground v.1.15,2013-02-19 14:28:00,
2013-02-19 09:32:00,33.4,32.6,29.16,North,350,0.0,3.0,97,0.00,,,0.00,5,Wunderground v.1.15,2013-02-19 14:32:00,
2013-02-19 09:37:00,33.4,32.6,29.15,North,360,0.0,3.0,97,0.00,,,0.00,5,Wunderground v.1.15,2013-02-19 14:37:00,
2013-02-19 09:38:00,33.4,32.6,29.15,North,9,0.0,3.0,97,0.00,,,0.00,7,Wunderground v.1.15,2013-02-19 14:38:00,
2013-02-19 09:39:00,33.4,32.6,29.15,North,9,0.0,3.0,97,0.00,,,0.00,7,Wunderground v.1.15,2013-02-19 14:39:00,
2013-02-19 09:44:00,33.3,32.5,29.15,North,9,0.0,3.0,97,0.00,,,0.00,7,Wunderground v.1.15,2013-02-19 14:44:00,
2013-02-19 09:45:00,33.3,32.5,29.15,North,9,0.0,3.0,97,0.00,,,0.00,7,Wunderground v.1.15,2013-02-19 14:45:00,
2013-02-19 09:49:00,33.3,32.5,29.15,North,9,0.0,3.0,97,0.00,,,0.00,9,Wunderground v.1.15,2013-02-19 14:49:00,
2013-02-19 09:50:00,33.3,32.5,29.15,North,9,0.0,3.0,97,0.00,,,0.00,9,Wunderground v.1.15,2013-02-19 14:50:00,
2013-02-19 09:52:00,33.3,32.5,29.15,North,9,0.0,3.0,97,0.00,,,0.00,11,Wunderground v.1.15,2013-02-19 14:52:00,
2013-02-19 09:54:00,33.3,32.5,29.15,North,9,0.0,3.0,97,0.00,,,0.00,11,Wunderground v.1.15,2013-02-19 14:54:00,
2013-02-19 09:56:00,33.3,32.5,29.15,North,9,0.0,3.0,97,0.00,,,0.00,14,Wunderground v.1.15,2013-02-19 14:56:00,
2013-02-19 09:57:00,33.3,32.5,29.15,North,9,0.0,3.0,97,0.00,,,0.00,14,Wunderground v.1.15,2013-02-19 14:57:00,
2013-02-19 10:02:00,33.3,32.5,29.15,North,9,0.0,3.0,97,0.00,,,0.00,14,Wunderground v.1.15,2013-02-19 15:02:00,
2013-02-19 10:03:00,33.3,32.5,29.15,North,9,0.0,3.0,97,0.00,,,0.00,14,Wunderground v.1.15,2013-02-19 15:03:00,
2013-02-19 10:05:00,33.3,32.5,29.15,North,9,0.0,3.0,97,0.00,,,0.00,16,Wunderground v.1.15,2013-02-19 15:05:00,
2013-02-19 10:08:00,33.4,32.6,29.15,North,9,0.0,3.0,97,0.00,,,0.00,14,Wunderground v.1.15,2013-02-19 15:08:00,
2013-02-19 10:09:00,33.4,32.6,29.15,North,9,0.0,3.0,97,0.00,,,0.00,14,Wunderground v.1.15,2013-02-19 15:09:00,
2013-02-19 10:10:00,33.4,32.6,29.15,North,9,0.0,3.0,97,0.00,,,0.00,14,Wunderground v.1.15,2013-02-19 15:10:00,
2013-02-19 10:14:00,33.4,32.6,29.16,North,9,0.0,3.0,97,0.00,,,0.00,14,Wunderground v.1.15,2013-02-19 15:14:00,
2013-02-19 10:16:00,33.5,32.7,29.15,North,9,0.0,3.0,97,0.00,,,0.00,14,Wunderground v.1.15,2013-02-19 15:16:00,
2013-02-19 10:17:00,33.5,32.7,29.15,North,9,0.0,3.0,97,0.00,,,0.00,16,Wunderground v.1.15,2013-02-19 15:17:00,
2013-02-19 10:19:00,33.5,33.0,29.15,North,9,0.0,3.0,98,0.00,,,0.00,16,Wunderground v.1.15,2013-02-19 15:19:00,
2013-02-19 10:21:00,33.5,33.0,29.15,North,9,0.0,3.0,98,0.00,,,0.00,14,Wunderground v.1.15,2013-02-19 15:21:00,
2013-02-19 10:23:00,33.5,33.0,29.15,North,9,0.0,3.0,98,0.00,,,0.00,14,Wunderground v.1.15,2013-02-19 15:23:00,
2013-02-19 10:26:00,33.5,33.0,29.15,North,9,0.0,3.0,98,0.00,,,0.00,16,Wunderground v.1.15,2013-02-19 15:26:00,
2013-02-19 10:27:00,33.5,33.0,29.15,North,9,0.0,3.0,98,0.00,,,0.00,16,Wunderground v.1.15,2013-02-19 15:27:00,
2013-02-19 10:29:00,33.5,33.0,29.15,North,9,0.0,3.0,98,0.00,,,0.00,14,Wunderground v.1.15,2013-02-19 15:29:00,
2013-02-19 10:31:00,33.5,33.0,29.16,North,9,0.0,3.0,98,0.00,,,0.00,14,Wunderground v.1.15,2013-02-19 15:31:00,
2013-02-19 10:32:00,33.5,33.0,29.16,North,9,0.0,3.0,98,0.00,,,0.00,14,Wunderground v.1.15,2013-02-19 15:32:00,
2013-02-19 10:33:00,33.5,33.0,29.16,North,9,0.0,3.0,98,0.00,,,0.00,14,Wunderground v.1.15,2013-02-19 15:33:00,
2013-02-19 10:36:00,33.5,33.0,29.16,North,9,0.0,3.0,98,0.00,,,0.00,14,Wunderground v.1.15,2013-02-19 15:36:00,
2013-02-19 10:38:00,33.5,33.0,29.15,North,9,0.0,3.0,98,0.00,,,0.00,14,Wunderground v.1.15,2013-02-19 15:38:00,
2013-02-19 10:39:00,33.5,33.0,29.15,North,9,0.0,3.0,98,0.00,,,0.00,14,Wunderground v.1.15,2013-02-19 15:39:00,
2013-02-19 10:43:00,33.5,32.7,29.15,North,9,0.0,3.0,97,0.00,,,0.00,12,Wunderground v.1.15,2013-02-19 15:43:00,
2013-02-19 10:44:00,33.5,33.0,29.15,North,9,0.0,3.0,98,0.00,,,0.00,12,Wunderground v.1.15,2013-02-19 15:44:00,
2013-02-19 10:45:00,33.5,32.7,29.15,North,9,0.0,3.0,97,0.00,,,0.00,14,Wunderground v.1.15,2013-02-19 15:45:00,
2013-02-19 10:49:00,33.5,32.7,29.16,North,9,0.0,3.0,97,0.00,,,0.00,12,Wunderground v.1.15,2013-02-19 15:49:00,
2013-02-19 10:51:00,33.5,33.0,29.16,North,9,0.0,3.0,98,0.00,,,0.00,12,Wunderground v.1.15,2013-02-19 15:51:00,
2013-02-19 10:52:00,33.5,32.7,29.16,North,9,0.0,3.0,97,0.00,,,0.00,11,Wunderground v.1.15,2013-02-19 15:52:00,
2013-02-19 10:54:00,33.5,33.0,29.16,North,9,0.0,3.0,98,0.00,,,0.00,11,Wunderground v.1.15,2013-02-19 15:54:00,
2013-02-19 10:56:00,33.5,33.0,29.16,North,9,0.0,3.0,98,0.00,,,0.00,11,Wunderground v.1.15,2013-02-19 15:56:00,
2013-02-19 10:59:00,33.5,33.0,29.16,North,9,0.0,3.0,98,0.00,,,0.00,11,Wunderground v.1.15,2013-02-19 15:59:00,
2013-02-19 11:00:00,33.5,33.0,29.16,North,9,0.0,3.0,98,0.00,,,0.00,11,Wunderground v.1.15,2013-02-19 16:00:00,
2013-02-19 11:06:00,33.5,33.0,29.16,North,9,0.0,3.0,98,0.00,,,0.00,11,Wunderground v.1.15,2013-02-19 16:06:00,
2013-02-19 11:07:00,33.6,33.1,29.16,North,9,0.0,3.0,98,0.00,,,0.00,11,Wunderground v.1.15,2013-02-19 16:07:00,
2013-02-19 11:08:00,33.6,33.1,29.16,North,9,0.0,3.0,98,0.00,,,0.00,11,Wunderground v.1.15,2013-02-19 16:08:00,
2013-02-19 11:13:00,33.6,33.1,29.16,SSE,157,0.0,3.0,98,0.00,,,0.00,11,Wunderground v.1.15,2013-02-19 16:13:00,
2013-02-19 11:14:00,33.6,33.1,29.16,SSE,165,0.0,7.0,98,0.00,,,0.00,12,Wunderground v.1.15,2013-02-19 16:14:00,
2013-02-19 11:15:00,33.6,33.1,29.16,SSE,166,1.0,7.0,98,0.00,,,0.00,12,Wunderground v.1.15,2013-02-19 16:15:00,
2013-02-19 11:19:00,33.7,33.2,29.16,South,173,1.0,7.0,98,0.00,,,0.00,11,Wunderground v.1.15,2013-02-19 16:19:00,
2013-02-19 11:21:00,33.7,33.2,29.16,South,170,1.0,3.0,98,0.00,,,0.00,12,Wunderground v.1.15,2013-02-19 16:21:00,
2013-02-19 11:22:00,33.7,33.2,29.16,SSE,148,1.0,3.0,98,0.00,,,0.00,12,Wunderground v.1.15,2013-02-19 16:22:00,
2013-02-19 11:23:00,33.7,33.2,29.16,SSE,148,1.0,3.0,98,0.00,,,0.00,12,Wunderground v.1.15,2013-02-19 16:23:00,
2013-02-19 11:27:00,33.8,33.3,29.16,SSW,206,1.0,3.0,98,0.00,,,0.00,18,Wunderground v.1.15,2013-02-19 16:27:00,
2013-02-19 11:28:00,33.8,33.3,29.16,SSW,206,1.0,3.0,98,0.00,,,0.00,18,Wunderground v.1.15,2013-02-19 16:28:00,
2013-02-19 11:29:00,33.8,33.3,29.16,WNW,288,1.0,3.0,98,0.00,,,0.01,18,Wunderground v.1.15,2013-02-19 16:29:00,
2013-02-19 11:32:00,33.9,33.4,29.16,WSW,256,0.0,3.0,98,0.00,,,0.01,18,Wunderground v.1.15,2013-02-19 16:32:00,
2013-02-19 11:33:00,33.9,33.4,29.16,WSW,256,0.0,3.0,98,0.00,,,0.01,18,Wunderground v.1.15,2013-02-19 16:33:00,
2013-02-19 11:34:00,33.9,33.1,29.16,WSW,256,0.0,3.0,97,0.00,,,0.01,16,Wunderground v.1.15,2013-02-19 16:34:00,
2013-02-19 11:37:00,33.9,33.4,29.16,WSW,256,0.0,3.0,98,0.00,,,0.01,14,Wunderground v.1.15,2013-02-19 16:37:00,
2013-02-19 11:38:00,33.9,33.4,29.16,WSW,256,0.0,3.0,98,0.00,,,0.01,14,Wunderground v.1.15,2013-02-19 16:38:00,
2013-02-19 11:41:00,34.0,33.5,29.16,WSW,256,0.0,3.0,98,0.00,,,0.01,14,Wunderground v.1.15,2013-02-19 16:41:00,
2013-02-19 11:43:00,34.1,33.6,29.16,WSW,256,0.0,3.0,98,0.00,,,0.01,14,Wunderground v.1.15,2013-02-19 16:43:00,
2013-02-19 11:44:00,34.1,33.6,29.17,WSW,256,0.0,3.0,98,0.00,,,0.01,14,Wunderground v.1.15,2013-02-19 16:44:00,
2013-02-19 11:46:00,34.1,33.6,29.17,SW,236,0.0,3.0,98,0.00,,,0.01,16,Wunderground v.1.15,2013-02-19 16:46:00,
2013-02-19 11:48:00,34.1,33.6,29.16,SW,221,0.0,3.0,98,0.00,,,0.01,19,Wunderground v.1.15,2013-02-19 16:48:00,
2013-02-19 11:49:00,34.1,33.6,29.17,SW,219,0.0,3.0,98,0.00,,,0.01,19,Wunderground v.1.15,2013-02-19 16:49:00,
2013-02-19 11:50:00,34.1,33.6,29.17,SW,219,0.0,3.0,98,0.00,,,0.01,16,Wunderground v.1.15,2013-02-19 16:50:00,
2013-02-19 11:53:00,34.0,33.2,29.17,West,281,0.0,3.0,97,0.00,,,0.01,16,Wunderground v.1.15,2013-02-19 16:53:00,
2013-02-19 11:55:00,33.9,33.1,29.17,WNW,299,0.0,3.0,97,0.00,,,0.01,18,Wunderground v.1.15,2013-02-19 16:55:00,
2013-02-19 11:56:00,33.8,33.3,29.17,NNW,338,0.0,3.0,98,0.00,,,0.01,19,Wunderground v.1.15,2013-02-19 16:56:00,
2013-02-19 11:57:00,33.7,33.2,29.17,NW,306,0.0,3.0,98,0.00,,,0.01,21,Wunderground v.1.15,2013-02-19 16:57:00,
2013-02-19 12:01:00,33.4,32.6,29.17,NW,309,0.0,3.0,97,0.00,,,0.01,19,Wunderground v.1.15,2013-02-19 17:01:00,
2013-02-19 12:02:00,33.4,32.6,29.17,SSE,153,0.0,3.0,97,0.00,,,0.01,19,Wunderground v.1.15,2013-02-19 17:02:00,
2013-02-19 12:04:00,33.3,32.5,29.17,WSW,248,0.0,3.0,97,0.00,,,0.01,23,Wunderground v.1.15,2013-02-19 17:04:00,
2013-02-19 12:07:00,33.3,32.5,29.17,ENE,61,1.0,5.0,97,0.00,,,0.01,23,Wunderground v.1.15,2013-02-19 17:07:00,
2013-02-19 12:08:00,33.3,32.5,29.17,East,94,1.0,6.0,97,0.00,,,0.01,23,Wunderground v.1.15,2013-02-19 17:08:00,
2013-02-19 12:11:00,33.3,32.5,29.17,SSW,207,2.0,6.0,97,0.00,,,0.01,23,Wunderground v.1.15,2013-02-19 17:11:00,
2013-02-19 12:14:00,33.3,32.5,29.18,SSE,168,2.0,6.0,97,0.00,,,0.01,23,Wunderground v.1.15,2013-02-19 17:14:00,
2013-02-19 12:15:00,33.3,32.5,29.18,SW,223,2.0,6.0,97,0.00,,,0.01,23,Wunderground v.1.15,2013-02-19 17:15:00,
2013-02-19 12:18:00,33.2,32.4,29.18,NNE,31,2.0,6.0,97,0.00,,,0.01,25,Wunderground v.1.15,2013-02-19 17:18:00,
2013-02-19 12:23:00,33.0,32.2,29.18,South,180,2.0,6.0,97,0.00,,,0.01,26,Wunderground v.1.15,2013-02-19 17:23:00,
2013-02-19 12:25:00,33.0,32.2,29.18,WNW,283,2.0,6.0,97,0.00,,,0.01,26,Wunderground v.1.15,2013-02-19 17:25:00,
2013-02-19 12:27:00,33.0,32.2,29.18,North,5,2.0,6.0,97,0.00,,,0.01,25,Wunderground v.1.15,2013-02-19 17:27:00,
2013-02-19 12:30:00,33.0,32.2,29.18,South,174,2.0,6.0,97,0.00,,,0.01,25,Wunderground v.1.15,2013-02-19 17:30:00,
2013-02-19 12:32:00,33.0,32.2,29.18,SSE,149,3.0,10.0,97,0.00,,,0.01,26,Wunderground v.1.15,2013-02-19 17:32:00,
2013-02-19 12:33:00,33.0,32.2,29.18,SE,136,3.0,10.0,97,0.00,,,0.01,28,Wunderground v.1.15,2013-02-19 17:33:00,
2013-02-19 12:35:00,33.0,32.2,29.18,SSE,150,4.0,10.0,97,0.00,,,0.01,32,Wunderground v.1.15,2013-02-19 17:35:00,
2013-02-19 12:36:00,33.0,32.2,29.18,South,173,5.0,10.0,97,0.00,,,0.01,33,Wunderground v.1.15,2013-02-19 17:36:00,
2013-02-19 12:40:00,32.8,32.0,29.18,South,174,7.0,12.0,97,0.00,,,0.01,33,Wunderground v.1.15,2013-02-19 17:40:00,
2013-02-19 12:41:00,32.7,31.9,29.18,SSE,165,8.0,15.0,97,0.00,,,0.01,33,Wunderground v.1.15,2013-02-19 17:41:00,
2013-02-19 12:42:00,32.7,31.9,29.18,South,169,9.0,15.0,97,0.00,,,0.01,32,Wunderground v.1.15,2013-02-19 17:42:00,
2013-02-19 12:43:00,32.6,31.8,29.18,ENE,65,9.0,15.0,97,0.00,,,0.01,32,Wunderground v.1.15,2013-02-19 17:43:00,
2013-02-19 12:47:00,32.6,31.8,29.18,South,185,9.0,15.0,97,0.00,,,0.01,30,Wunderground v.1.15,2013-02-19 17:47:00,
2013-02-19 12:48:00,32.6,31.8,29.18,South,183,9.0,15.0,97,0.00,,,0.01,30,Wunderground v.1.15,2013-02-19 17:48:00,
2013-02-19 12:50:00,32.6,31.8,29.19,South,173,9.0,9.0,97,0.00,,,0.01,28,Wunderground v.1.15,2013-02-19 17:50:00,
2013-02-19 12:54:00,32.6,31.8,29.19,South,181,9.0,15.0,97,0.00,,,0.01,28,Wunderground v.1.15,2013-02-19 17:54:00,
2013-02-19 12:55:00,32.6,31.8,29.19,South,172,9.0,15.0,97,0.00,,,0.01,28,Wunderground v.1.15,2013-02-19 17:55:00,
2013-02-19 12:56:00,32.6,31.8,29.19,South,184,9.0,15.0,97,0.00,,,0.01,26,Wunderground v.1.15,2013-02-19 17:56:00,
2013-02-19 12:58:00,32.5,31.7,29.19,SSW,196,9.0,15.0,97,0.00,,,0.01,26,Wunderground v.1.15,2013-02-19 17:58:00,
2013-02-19 13:00:00,32.4,31.6,29.19,SSW,194,10.0,12.0,97,0.00,,,0.01,26,Wunderground v.1.15,2013-02-19 18:00:00,
2013-02-19 13:04:00,32.0,31.2,29.20,South,181,10.0,13.0,97,0.00,,,0.01,30,Wunderground v.1.15,2013-02-19 18:04:00,
2013-02-19 13:05:00,31.9,31.1,29.20,SSE,155,10.0,13.0,97,0.00,,,0.01,30,Wunderground v.1.15,2013-02-19 18:05:00,
2013-02-19 13:07:00,31.8,31.0,29.20,South,187,10.0,13.0,97,0.00,,,0.01,30,Wunderground v.1.15,2013-02-19 18:07:00,
2013-02-19 13:12:00,31.4,30.6,29.20,South,186,10.0,13.0,97,0.00,,,0.01,32,Wunderground v.1.15,2013-02-19 18:12:00,
2013-02-19 13:14:00,31.2,30.4,29.21,South,184,10.0,13.0,97,0.00,,,0.01,32,Wunderground v.1.15,2013-02-19 18:14:00,
2013-02-19 13:16:00,31.0,30.2,29.21,SSE,168,10.0,13.0,97,0.00,,,0.01,32,Wunderground v.1.15,2013-02-19 18:16:00,
2013-02-19 13:18:00,30.8,30.0,29.22,SSW,209,10.0,18.0,97,0.00,,,0.01,32,Wunderground v.1.15,2013-02-19 18:18:00,
2013-02-19 13:20:00,30.5,29.8,29.22,SSW,194,10.0,17.0,97,0.00,,,0.01,33,Wunderground v.1.15,2013-02-19 18:20:00,
2013-02-19 13:21:00,30.4,29.7,29.22,South,173,10.0,17.0,97,0.00,,,0.01,33,Wunderground v.1.15,2013-02-19 18:21:00,
2013-02-19 13:22:00,30.3,29.6,29.22,SE,136,11.0,17.0,97,0.00,,,0.01,35,Wunderground v.1.15,2013-02-19 18:22:00,
2013-02-19 13:23:00,30.1,29.4,29.22,South,172,11.0,17.0,97,0.00,,,0.01,35,Wunderground v.1.15,2013-02-19 18:23:00,
2013-02-19 13:27:00,29.9,29.2,29.23,South,169,11.0,17.0,97,0.00,,,0.01,39,Wunderground v.1.15,2013-02-19 18:27:00,
2013-02-19 13:29:00,29.8,29.1,29.23,South,178,12.0,21.0,97,0.00,,,0.01,40,Wunderground v.1.15,2013-02-19 18:29:00,
2013-02-19 13:30:00,29.7,29.0,29.22,SSW,194,12.0,12.0,97,0.00,,,0.01,40,Wunderground v.1.15,2013-02-19 18:30:00,
2013-02-19 13:32:00,29.5,28.8,29.23,South,182,12.0,12.0,97,0.00,,,0.01,44,Wunderground v.1.15,2013-02-19 18:32:00,
2013-02-19 13:34:00,29.4,28.7,29.23,SSE,168,13.0,16.0,97,0.00,,,0.01,46,Wunderground v.1.15,2013-02-19 18:34:00,
2013-02-19 13:38:00,29.2,28.5,29.24,South,190,12.0,16.0,97,0.00,,,0.01,47,Wunderground v.1.15,2013-02-19 18:38:00,
2013-02-19 13:39:00,29.2,28.5,29.24,SSW,202,12.0,16.0,97,0.00,,,0.01,47,Wunderground v.1.15,2013-02-19 18:39:00,
2013-02-19 13:40:00,29.1,28.4,29.24,SSW,201,12.0,12.0,97,0.00,,,0.01,47,Wunderground v.1.15,2013-02-19 18:40:00,
2013-02-19 13:43:00,29.0,28.3,29.25,South,186,10.0,12.0,97,0.00,,,0.01,49,Wunderground v.1.15,2013-02-19 18:43:00,
2013-02-19 13:46:00,28.9,28.2,29.25,SW,219,9.0,12.0,97,0.00,,,0.01,49,Wunderground v.1.15,2013-02-19 18:46:00,
2013-02-19 13:48:00,28.7,28.0,29.25,South,178,9.0,12.0,97,0.00,,,0.01,49,Wunderground v.1.15,2013-02-19 18:48:00,
2013-02-19 13:50:00,28.6,27.9,29.25,South,175,9.0,12.0,97,0.00,,,0.01,47,Wunderground v.1.15,2013-02-19 18:50:00,
2013-02-19 13:52:00,28.4,27.4,29.26,South,183,10.0,12.0,96,0.00,,,0.01,47,Wunderground v.1.15,2013-02-19 18:52:00,
2013-02-19 13:54:00,28.3,27.3,29.26,South,184,10.0,12.0,96,0.00,,,0.01,44,Wunderground v.1.15,2013-02-19 18:54:00,
2013-02-19 13:56:00,28.2,27.5,29.26,SSE,168,10.0,12.0,97,0.00,,,0.01,42,Wunderground v.1.15,2013-02-19 18:56:00,
2013-02-19 13:57:00,28.1,27.4,29.26,SSW,207,9.0,12.0,97,0.00,,,0.01,42,Wunderground v.1.15,2013-02-19 18:57:00,
2013-02-19 14:00:00,27.9,26.9,29.26,South,187,10.0,10.0,96,0.00,,,0.01,39,Wunderground v.1.15,2013-02-19 19:00:00,
2013-02-19 14:02:00,27.8,26.8,29.27,SSE,165,9.0,11.0,96,0.00,,,0.01,37,Wunderground v.1.15,2013-02-19 19:02:00,
2013-02-19 14:07:00,27.5,26.5,29.27,South,182,11.0,13.0,96,0.00,,,0.01,33,Wunderground v.1.15,2013-02-19 19:07:00,
2013-02-19 14:08:00,27.4,26.4,29.27,SSE,164,11.0,13.0,96,0.00,,,0.01,33,Wunderground v.1.15,2013-02-19 19:08:00,
2013-02-19 14:12:00,27.2,26.2,29.28,SSE,159,12.0,19.0,96,0.00,,,0.01,33,Wunderground v.1.15,2013-02-19 19:12:00,
2013-02-19 14:15:00,27.1,26.1,29.28,SSW,205,12.0,19.0,96,0.00,,,0.01,33,Wunderground v.1.15,2013-02-19 19:15:00,
2013-02-19 14:18:00,27.0,26.0,29.28,SSW,198,12.0,19.0,96,0.00,,,0.01,33,Wunderground v.1.15,2013-02-19 19:18:00,
2013-02-19 14:20:00,27.0,26.0,29.29,South,182,12.0,21.0,96,0.00,,,0.01,35,Wunderground v.1.15,2013-02-19 19:20:00,
2013-02-19 14:24:00,26.9,25.9,29.29,South,188,11.0,21.0,96,0.00,,,0.01,35,Wunderground v.1.15,2013-02-19 19:24:00,
2013-02-19 14:26:00,26.9,25.9,29.29,South,175,11.0,21.0,96,0.00,,,0.01,35,Wunderground v.1.15,2013-02-19 19:26:00,
2013-02-19 14:27:00,26.9,25.9,29.29,SSW,199,11.0,21.0,96,0.00,,,0.01,35,Wunderground v.1.15,2013-02-19 19:27:00,
2013-02-19 14:30:00,26.9,25.9,29.29,SSW,210,12.0,12.0,96,0.00,,,0.01,33,Wunderground v.1.15,2013-02-19 19:30:00,
2013-02-19 14:32:00,26.9,25.9,29.30,SSW,193,11.0,12.0,96,0.00,,,0.01,33,Wunderground v.1.15,2013-02-19 19:32:00,
2013-02-19 14:33:00,26.8,25.8,29.30,South,177,11.0,12.0,96,0.00,,,0.01,32,Wunderground v.1.15,2013-02-19 19:33:00,
2013-02-19 14:35:00,26.8,25.8,29.30,South,186,11.0,15.0,96,0.00,,,0.01,32,Wunderground v.1.15,2013-02-19 19:35:00,
2013-02-19 14:39:00,26.8,25.8,29.31,South,184,12.0,15.0,96,0.00,,,0.01,30,Wunderground v.1.15,2013-02-19 19:39:00,
2013-02-19 14:42:00,26.9,25.9,29.31,SSW,194,11.0,12.0,96,0.00,,,0.01,28,Wunderground v.1.15,2013-02-19 19:42:00,
2013-02-19 14:44:00,26.9,25.9,29.31,SSE,162,11.0,19.0,96,0.00,,,0.01,30,Wunderground v.1.15,2013-02-19 19:44:00,
2013-02-19 14:47:00,26.9,25.9,29.31,South,178,10.0,19.0,96,0.00,,,0.01,26,Wunderground v.1.15,2013-02-19 19:47:00,
2013-02-19 14:52:00,26.9,25.9,29.32,SSW,202,10.0,13.0,96,0.00,,,0.01,26,Wunderground v.1.15,2013-02-19 19:52:00,
2013-02-19 14:55:00,26.9,25.9,29.33,SSW,195,9.0,14.0,96,0.00,,,0.01,25,Wunderground v.1.15,2013-02-19 19:55:00,
2013-02-19 14:57:00,26.8,25.8,29.33,SSW,194,10.0,14.0,96,0.00,,,0.01,25,Wunderground v.1.15,2013-02-19 19:57:00,
2013-02-19 14:58:00,26.7,25.7,29.33,SSW,196,10.0,14.0,96,0.00,,,0.01,25,Wunderground v.1.15,2013-02-19 19:58:00,
2013-02-19 15:00:00,26.7,25.7,29.33,SSW,196,10.0,13.0,96,0.00,,,0.01,23,Wunderground v.1.15,2013-02-19 20:00:00,
2013-02-19 15:04:00,26.6,25.6,29.34,South,185,10.0,14.0,96,0.00,,,0.01,25,Wunderground v.1.15,2013-02-19 20:04:00,
2013-02-19 15:05:00,26.6,25.6,29.33,South,172,10.0,14.0,96,0.00,,,0.01,25,Wunderground v.1.15,2013-02-19 20:05:00,
2013-02-19 15:07:00,26.5,25.5,29.34,SSW,205,10.0,14.0,96,0.00,,,0.01,23,Wunderground v.1.15,2013-02-19 20:07:00,
2013-02-19 15:12:00,26.4,25.4,29.34,SSW,208,9.0,10.0,96,0.00,,,0.01,23,Wunderground v.1.15,2013-02-19 20:12:00,
2013-02-19 15:14:00,26.3,25.3,29.34,SSW,196,11.0,13.0,96,0.00,,,0.01,23,Wunderground v.1.15,2013-02-19 20:14:00,
2013-02-19 15:18:00,26.2,25.2,29.35,SSW,192,10.0,14.0,96,0.00,,,0.01,25,Wunderground v.1.15,2013-02-19 20:18:00,
2013-02-19 15:19:00,26.2,25.2,29.35,South,178,10.0,14.0,96,0.00,,,0.01,25,Wunderground v.1.15,2013-02-19 20:19:00,
2013-02-19 15:20:00,26.2,25.2,29.35,South,173,10.0,15.0,96,0.00,,,0.01,26,Wunderground v.1.15,2013-02-19 20:20:00,
2013-02-19 15:24:00,26.0,25.0,29.35,SSW,197,11.0,17.0,96,0.00,,,0.01,26,Wunderground v.1.15,2013-02-19 20:24:00,
2013-02-19 15:26:00,26.0,25.0,29.35,South,190,11.0,17.0,96,0.00,,,0.01,23,Wunderground v.1.15,2013-02-19 20:26:00,
2013-02-19 15:27:00,26.0,25.0,29.35,South,173,11.0,18.0,96,0.00,,,0.01,23,Wunderground v.1.15,2013-02-19 20:27:00,
2013-02-19 15:29:00,25.9,24.9,29.36,SSW,207,12.0,23.0,96,0.00,,,0.01,23,Wunderground v.1.15,2013-02-19 20:29:00,
2013-02-19 15:31:00,25.8,24.8,29.36,SSW,197,13.0,13.0,96,0.00,,,0.01,21,Wunderground v.1.15,2013-02-19 20:31:00,
2013-02-19 15:34:00,25.7,24.7,29.36,South,174,13.0,22.0,96,0.00,,,0.01,21,Wunderground v.1.15,2013-02-19 20:34:00,
2013-02-19 15:36:00,25.5,24.5,29.36,South,188,14.0,22.0,96,0.00,,,0.01,19,Wunderground v.1.15,2013-02-19 20:36:00,
2013-02-19 15:37:00,25.4,24.4,29.36,South,182,15.0,22.0,96,0.00,,,0.01,21,Wunderground v.1.15,2013-02-19 20:37:00,
2013-02-19 15:39:00,25.4,24.4,29.37,SSW,209,14.0,22.0,96,0.00,,,0.01,19,Wunderground v.1.15,2013-02-19 20:39:00,
2013-02-19 15:41:00,25.4,24.4,29.37,South,182,14.0,16.0,96,0.00,,,0.01,18,Wunderground v.1.15,2013-02-19 20:41:00,
2013-02-19 15:45:00,25.2,24.2,29.37,South,171,12.0,17.0,96,0.00,,,0.01,18,Wunderground v.1.15,2013-02-19 20:45:00,
2013-02-19 15:46:00,24.9,23.9,29.38,South,180,12.0,17.0,96,0.00,,,0.01,18,Wunderground v.1.15,2013-02-19 20:46:00,
2013-02-19 15:48:00,24.7,23.7,29.37,SW,227,12.0,17.0,96,0.00,,,0.01,16,Wunderground v.1.15,2013-02-19 20:48:00,
2013-02-19 15:49:00,24.5,23.5,29.38,South,184,12.0,17.0,96,0.00,,,0.01,18,Wunderground v.1.15,2013-02-19 20:49:00,
2013-02-19 15:51:00,24.2,23.2,29.38,South,174,13.0,18.0,96,0.00,,,0.01,16,Wunderground v.1.15,2013-02-19 20:51:00,
2013-02-19 15:52:00,24.1,23.1,29.38,SSW,194,13.0,18.0,96,0.00,,,0.01,16,Wunderground v.1.15,2013-02-19 20:52:00,
2013-02-19 15:55:00,23.7,22.5,29.39,South,188,14.0,20.0,95,0.00,,,0.01,18,Wunderground v.1.15,2013-02-19 20:55:00,
2013-02-19 15:56:00,23.6,22.4,29.39,SSW,204,14.0,20.0,95,0.00,,,0.01,18,Wunderground v.1.15,2013-02-19 20:56:00,
2013-02-19 15:57:00,23.4,22.2,29.39,SSW,194,15.0,20.0,95,0.00,,,0.01,18,Wunderground v.1.15,2013-02-19 20:57:00,
2013-02-19 16:01:00,23.1,21.9,29.40,South,190,16.0,16.0,95,0.00,,,0.01,18,Wunderground v.1.15,2013-02-19 21:01:00,
2013-02-19 16:06:00,22.5,21.3,29.41,SSW,192,15.0,24.0,95,0.00,,,0.01,16,Wunderground v.1.15,2013-02-19 21:06:00,
2013-02-19 16:07:00,22.4,21.2,29.41,SSW,203,15.0,24.0,95,0.00,,,0.01,16,Wunderground v.1.15,2013-02-19 21:07:00,
2013-02-19 16:09:00,22.2,21.0,29.40,South,172,15.0,24.0,95,0.00,,,0.01,16,Wunderground v.1.15,2013-02-19 21:09:00,
2013-02-19 16:11:00,22.1,20.9,29.41,SSW,213,14.0,20.0,95,0.00,,,0.01,16,Wunderground v.1.15,2013-02-19 21:11:00,
2013-02-19 16:12:00,22.0,20.8,29.41,SSW,202,15.0,23.0,95,0.00,,,0.01,16,Wunderground v.1.15,2013-02-19 21:12:00,
2013-02-19 16:14:00,21.8,20.6,29.41,South,175,15.0,23.0,95,0.00,,,0.01,14,Wunderground v.1.15,2013-02-19 21:14:00,
2013-02-19 16:17:00,21.6,20.4,29.42,South,178,16.0,23.0,95,0.00,,,0.01,14,Wunderground v.1.15,2013-02-19 21:17:00,
2013-02-19 16:20:00,21.4,20.2,29.42,South,184,16.0,16.0,95,0.00,,,0.01,14,Wunderground v.1.15,2013-02-19 21:20:00,
2013-02-19 16:22:00,21.3,20.1,29.42,SW,227,15.0,16.0,95,0.00,,,0.01,14,Wunderground v.1.15,2013-02-19 21:22:00,
2013-02-19 16:23:00,21.2,20.0,29.43,SSW,212,15.0,21.0,95,0.00,,,0.01,14,Wunderground v.1.15,2013-02-19 21:23:00,
2013-02-19 16:26:00,21.1,19.9,29.43,SW,214,15.0,21.0,95,0.00,,,0.01,14,Wunderground v.1.15,2013-02-19 21:26:00,
2013-02-19 16:29:00,20.9,19.7,29.43,South,177,14.0,24.0,95,0.00,,,0.01,14,Wunderground v.1.15,2013-02-19 21:29:00,
2013-02-19 16:30:00,20.9,19.7,29.43,South,179,15.0,20.0,95,0.00,,,0.01,14,Wunderground v.1.15,2013-02-19 21:30:00,
2013-02-19 16:35:00,20.7,19.5,29.44,SW,223,15.0,20.0,95,0.00,,,0.01,14,Wunderground v.1.15,2013-02-19 21:35:00,
2013-02-19 16:36:00,20.7,19.5,29.44,SSW,199,15.0,20.0,95,0.00,,,0.01,14,Wunderground v.1.15,2013-02-19 21:36:00,
2013-02-19 16:41:00,20.6,19.4,29.45,SSW,202,13.0,14.0,95,0.00,,,0.01,14,Wunderground v.1.15,2013-02-19 21:41:00,
2013-02-19 16:42:00,20.5,19.3,29.45,South,184,13.0,14.0,95,0.00,,,0.01,14,Wunderground v.1.15,2013-02-19 21:42:00,
2013-02-19 16:43:00,20.4,19.2,29.45,SSW,209,14.0,14.0,95,0.00,,,0.01,14,Wunderground v.1.15,2013-02-19 21:43:00,
2013-02-19 16:48:00,20.0,18.6,29.46,SSW,198,16.0,16.0,94,0.00,,,0.01,14,Wunderground v.1.15,2013-02-19 21:48:00,
2013-02-19 16:49:00,20.0,18.6,29.46,SSW,213,16.0,16.0,94,0.00,,,0.01,12,Wunderground v.1.15,2013-02-19 21:49:00,
2013-02-19 16:50:00,20.0,18.6,29.45,South,186,16.0,18.0,94,0.00,,,0.01,12,Wunderground v.1.15,2013-02-19 21:50:00,
2013-02-19 16:51:00,19.9,18.5,29.46,SW,225,15.0,20.0,94,0.00,,,0.01,12,Wunderground v.1.15,2013-02-19 21:51:00,
2013-02-19 16:55:00,19.7,18.5,29.46,South,188,16.0,21.0,95,0.00,,,0.01,11,Wunderground v.1.15,2013-02-19 21:55:00,
2013-02-19 16:57:00,19.7,18.5,29.47,SSW,211,15.0,21.0,95,0.00,,,0.01,11,Wunderground v.1.15,2013-02-19 21:57:00,
2013-02-19 16:58:00,19.7,18.5,29.47,South,188,14.0,21.0,95,0.00,,,0.01,11,Wunderground v.1.15,2013-02-19 21:58:00,
2013-02-19 17:01:00,19.5,18.1,29.47,South,181,14.0,17.0,94,0.00,,,0.01,11,Wunderground v.1.15,2013-02-19 22:01:00,
2013-02-19 17:02:00,19.4,18.0,29.47,SW,233,14.0,17.0,94,0.00,,,0.01,9,Wunderground v.1.15,2013-02-19 22:02:00,
2013-02-19 17:07:00,19.0,17.6,29.48,SSW,207,12.0,19.0,94,0.00,,,0.01,9,Wunderground v.1.15,2013-02-19 22:07:00,
2013-02-19 17:08:00,18.9,17.5,29.48,SSW,200,13.0,19.0,94,0.00,,,0.01,9,Wunderground v.1.15,2013-02-19 22:08:00,
2013-02-19 17:11:00,18.7,17.3,29.49,South,190,13.0,13.0,94,0.00,,,0.01,9,Wunderground v.1.15,2013-02-19 22:11:00,
2013-02-19 17:12:00,18.6,17.2,29.49,SW,226,13.0,18.0,94,0.00,,,0.01,9,Wunderground v.1.15,2013-02-19 22:12:00,
2013-02-19 17:13:00,18.6,17.2,29.49,SSW,209,14.0,18.0,94,0.00,,,0.01,9,Wunderground v.1.15,2013-02-19 22:13:00,
2013-02-19 17:16:00,18.5,17.1,29.49,SSW,209,14.0,18.0,94,0.00,,,0.01,7,Wunderground v.1.15,2013-02-19 22:16:00,
2013-02-19 17:18:00,18.4,17.0,29.50,South,188,13.0,18.0,94,0.00,,,0.01,7,Wunderground v.1.15,2013-02-19 22:18:00,
2013-02-19 17:19:00,18.3,16.9,29.50,WSW,244,13.0,18.0,94,0.00,,,0.01,5,Wunderground v.1.15,2013-02-19 22:19:00,
2013-02-19 17:20:00,18.2,16.8,29.50,SSW,194,13.0,13.0,94,0.00,,,0.01,5,Wunderground v.1.15,2013-02-19 22:20:00,
2013-02-19 17:22:00,18.1,16.7,29.50,SSW,207,13.0,13.0,94,0.00,,,0.01,5,Wunderground v.1.15,2013-02-19 22:22:00,
2013-02-19 17:24:00,18.0,16.6,29.50,SSW,196,12.0,13.0,94,0.00,,,0.01,0,Wunderground v.1.15,2013-02-19 22:24:00,
2013-02-19 17:26:00,18.0,16.6,29.50,South,184,11.0,13.0,94,0.00,,,0.01,0,Wunderground v.1.15,2013-02-19 22:26:00,
2013-02-19 17:28:00,17.9,16.5,29.51,SSW,206,11.0,13.0,94,0.00,,,0.01,0,Wunderground v.1.15,2013-02-19 22:28:00,
2013-02-19 17:30:00,17.9,16.5,29.51,WSW,244,11.0,14.0,94,0.00,,,0.01,0,Wunderground v.1.15,2013-02-19 22:30:00,
2013-02-19 17:32:00,17.7,16.3,29.51,South,190,11.0,14.0,94,0.00,,,0.01,0,Wunderground v.1.15,2013-02-19 22:32:00,
2013-02-19 17:34:00,17.6,16.2,29.51,West,261,10.0,14.0,94,0.00,,,0.01,0,Wunderground v.1.15,2013-02-19 22:34:00,
2013-02-19 17:35:00,17.5,16.1,29.52,SSW,210,11.0,14.0,94,0.00,,,0.01,0,Wunderground v.1.15,2013-02-19 22:35:00,
2013-02-19 17:36:00,17.5,16.1,29.52,South,169,11.0,14.0,94,0.00,,,0.01,0,Wunderground v.1.15,2013-02-19 22:36:00,
2013-02-19 17:39:00,17.2,15.8,29.52,South,182,12.0,17.0,94,0.00,,,0.01,0,Wunderground v.1.15,2013-02-19 22:39:00,
2013-02-19 17:42:00,17.1,15.4,29.53,SSW,207,11.0,12.0,93,0.00,,,0.01,0,Wunderground v.1.15,2013-02-19 22:42:00,
2013-02-19 17:46:00,17.0,15.3,29.53,WSW,252,11.0,12.0,93,0.00,,,0.01,0,Wunderground v.1.15,2013-02-19 22:46:00,
2013-02-19 17:50:00,16.9,15.2,29.54,SSW,209,9.0,9.0,93,0.00,,,0.01,0,Wunderground v.1.15,2013-02-19 22:50:00,
2013-02-19 17:51:00,16.9,15.2,29.54,SW,217,9.0,9.0,93,0.00,,,0.01,0,Wunderground v.1.15,2013-02-19 22:51:00,
2013-02-19 17:53:00,16.8,15.1,29.54,SSW,212,8.0,15.0,93,0.00,,,0.01,0,Wunderground v.1.15,2013-02-19 22:53:00,
2013-02-19 17:57:00,16.7,15.0,29.54,SSW,211,9.0,15.0,93,0.00,,,0.01,0,Wunderground v.1.15,2013-02-19 22:57:00,
2013-02-19 17:58:00,16.7,15.0,29.54,SSW,210,8.0,20.0,93,0.00,,,0.01,0,Wunderground v.1.15,2013-02-19 22:58:00,
2013-02-19 18:00:00,16.7,15.0,29.54,SSW,204,9.0,15.0,93,0.00,,,0.01,0,Wunderground v.1.15,2013-02-19 23:00:00,
2013-02-19 18:04:00,16.5,14.8,29.55,SW,226,10.0,15.0,93,0.00,,,0.01,0,Wunderground v.1.15,2013-02-19 23:04:00,
2013-02-19 18:05:00,16.4,14.7,29.55,SSW,207,10.0,15.0,93,0.00,,,0.01,0,Wunderground v.1.15,2013-02-19 23:05:00,
2013-02-19 18:06:00,16.4,14.7,29.55,SW,221,10.0,15.0,93,0.00,,,0.01,0,Wunderground v.1.15,2013-02-19 23:06:00,
2013-02-19 18:08:00,16.3,14.6,29.55,SW,215,10.0,15.0,93,0.00,,,0.01,0,Wunderground v.1.15,2013-02-19 23:08:00,
2013-02-19 18:13:00,15.8,14.1,29.56,South,182,11.0,13.0,93,0.00,,,0.01,0,Wunderground v.1.15,2013-02-19 23:13:00,
2013-02-19 18:14:00,15.8,14.1,29.56,SSW,205,11.0,13.0,93,0.00,,,0.01,0,Wunderground v.1.15,2013-02-19 23:14:00,
2013-02-19 18:17:00,15.5,13.8,29.57,South,173,12.0,14.0,93,0.00,,,0.01,0,Wunderground v.1.15,2013-02-19 23:17:00,
2013-02-19 18:20:00,15.4,13.7,29.57,SW,232,12.0,12.0,93,0.00,,,0.01,0,Wunderground v.1.15,2013-02-19 23:20:00,
2013-02-19 18:21:00,15.3,13.6,29.58,South,191,11.0,12.0,93,0.00,,,0.01,0,Wunderground v.1.15,2013-02-19 23:21:00,
2013-02-19 18:25:00,15.2,13.5,29.58,SSW,198,10.0,14.0,93,0.00,,,0.01,0,Wunderground v.1.15,2013-02-19 23:25:00,
2013-02-19 18:26:00,15.2,13.5,29.58,SSW,195,10.0,16.0,93,0.00,,,0.01,0,Wunderground v.1.15,2013-02-19 23:26:00,
2013-02-19 18:27:00,15.2,13.5,29.58,South,171,10.0,16.0,93,0.00,,,0.01,0,Wunderground v.1.15,2013-02-19 23:27:00,
2013-02-19 18:32:00,14.9,13.0,29.58,South,186,12.0,15.0,92,0.00,,,0.01,0,Wunderground v.1.15,2013-02-19 23:32:00,
2013-02-19 18:34:00,14.9,13.2,29.58,SW,231,13.0,15.0,93,0.00,,,0.01,0,Wunderground v.1.15,2013-02-19 23:34:00,
2013-02-19 18:35:00,14.8,13.1,29.59,SW,225,13.0,15.0,93,0.00,,,0.01,0,Wunderground v.1.15,2013-02-19 23:35:00,
2013-02-19 18:39:00,14.8,12.9,29.59,South,183,12.0,18.0,92,0.00,,,0.01,0,Wunderground v.1.15,2013-02-19 23:39:00,
2013-02-19 18:40:00,14.8,13.1,29.59,SSE,167,12.0,17.0,93,0.00,,,0.01,0,Wunderground v.1.15,2013-02-19 23:40:00,
2013-02-19 18:42:00,14.7,12.8,29.60,SW,217,12.0,17.0,92,0.00,,,0.01,0,Wunderground v.1.15,2013-02-19 23:42:00,
2013-02-19 18:44:00,14.6,12.7,29.60,SSW,208,13.0,17.0,92,0.00,,,0.01,0,Wunderground v.1.15,2013-02-19 23:44:00,
2013-02-19 18:46:00,14.5,12.6,29.60,South,175,12.0,18.0,92,0.00,,,0.01,0,Wunderground v.1.15,2013-02-19 23:46:00,
2013-02-19 18:48:00,14.4,12.5,29.60,South,185,13.0,18.0,92,0.00,,,0.01,0,Wunderground v.1.15,2013-02-19 23:48:00,
2013-02-19 18:49:00,14.4,12.5,29.61,SSW,205,12.0,18.0,92,0.00,,,0.01,0,Wunderground v.1.15,2013-02-19 23:49:00,
2013-02-19 18:50:00,14.4,12.5,29.61,SSW,197,12.0,12.0,92,0.00,,,0.01,0,Wunderground v.1.15,2013-02-19 23:50:00,
2013-02-19 18:53:00,14.3,12.4,29.61,SW,223,12.0,13.0,92,0.00,,,0.01,0,Wunderground v.1.15,2013-02-19 23:53:00,
2013-02-19 18:55:00,14.4,12.5,29.61,SW,221,12.0,13.0,92,0.00,,,0.01,0,Wunderground v.1.15,2013-02-19 23:55:00,
2013-02-19 18:56:00,14.4,12.5,29.61,SW,217,11.0,13.0,92,0.00,,,0.01,0,Wunderground v.1.15,2013-02-19 23:56:00,
2013-02-19 18:59:00,14.4,12.5,29.62,SSW,209,11.0,14.0,92,0.00,,,0.01,0,Wunderground v.1.15,2013-02-19 23:59:00,
2013-02-19 19:02:00,14.4,12.5,29.62,SW,223,10.0,15.0,92,0.00,,,0.01,0,Wunderground v.1.15,2013-02-20 00:02:00,
2013-02-19 19:05:00,14.4,12.5,29.63,SW,224,10.0,15.0,92,0.00,,,0.01,0,Wunderground v.1.15,2013-02-20 00:05:00,
2013-02-19 19:06:00,14.4,12.5,29.63,SW,234,11.0,15.0,92,0.00,,,0.01,0,Wunderground v.1.15,2013-02-20 00:06:00,
2013-02-19 19:08:00,14.4,12.5,29.63,SW,217,11.0,15.0,92,0.00,,,0.01,0,Wunderground v.1.15,2013-02-20 00:08:00,
2013-02-19 19:11:00,14.3,12.4,29.63,West,271,11.0,13.0,92,0.00,,,0.01,0,Wunderground v.1.15,2013-02-20 00:11:00,
2013-02-19 19:12:00,14.2,12.3,29.63,South,183,11.0,13.0,92,0.00,,,0.01,0,Wunderground v.1.15,2013-02-20 00:12:00,
2013-02-19 19:13:00,14.1,12.2,29.63,South,182,11.0,13.0,92,0.00,,,0.01,0,Wunderground v.1.15,2013-02-20 00:13:00,
2013-02-19 19:14:00,14.0,12.1,29.63,WSW,243,11.0,13.0,92,0.00,,,0.01,0,Wunderground v.1.15,2013-02-20 00:14:00,
2013-02-19 19:17:00,13.9,11.8,29.63,SSE,167,12.0,14.0,91,0.00,,,0.01,0,Wunderground v.1.15,2013-02-20 00:17:00,
2013-02-19 19:19:00,13.8,11.7,29.64,SSW,204,12.0,15.0,91,0.00,,,0.01,0,Wunderground v.1.15,2013-02-20 00:19:00,
2013-02-19 19:20:00,13.7,11.6,29.64,SSW,213,11.0,11.0,91,0.00,,,0.01,0,Wunderground v.1.15,2013-02-20 00:20:00,
2013-02-19 19:24:00,13.7,11.6,29.64,SSW,211,10.0,11.0,91,0.00,,,0.01,0,Wunderground v.1.15,2013-02-20 00:24:00,
2013-02-19 19:25:00,13.7,11.6,29.64,SSW,196,10.0,11.0,91,0.00,,,0.01,0,Wunderground v.1.15,2013-02-20 00:25:00,
2013-02-19 19:26:00,13.7,11.8,29.64,SSW,194,10.0,12.0,92,0.00,,,0.01,0,Wunderground v.1.15,2013-02-20 00:26:00,
2013-02-19 19:31:00,13.6,11.7,29.65,SSW,207,11.0,19.0,92,0.00,,,0.01,0,Wunderground v.1.15,2013-02-20 00:31:00,
2013-02-19 19:32:00,13.6,11.5,29.65,South,186,11.0,19.0,91,0.00,,,0.01,0,Wunderground v.1.15,2013-02-20 00:32:00,
2013-02-19 19:33:00,13.7,11.8,29.65,SSE,168,11.0,19.0,92,0.00,,,0.01,0,Wunderground v.1.15,2013-02-20 00:33:00,
2013-02-19 19:38:00,13.7,11.6,29.65,SW,221,10.0,19.0,91,0.00,,,0.01,0,Wunderground v.1.15,2013-02-20 00:38:00,
2013-02-19 19:41:00,13.6,11.5,29.66,SW,234,10.0,10.0,91,0.00,,,0.01,0,Wunderground v.1.15,2013-02-20 00:41:00,
2013-02-19 19:45:00,13.4,11.3,29.66,SW,214,11.0,19.0,91,0.00,,,0.01,0,Wunderground v.1.15,2013-02-20 00:45:00,
2013-02-19 19:46:00,13.4,11.3,29.66,SSW,200,11.0,19.0,91,0.00,,,0.01,0,Wunderground v.1.15,2013-02-20 00:46:00,
2013-02-19 19:48:00,13.2,11.1,29.66,South,185,11.0,19.0,91,0.00,,,0.01,0,Wunderground v.1.15,2013-02-20 00:48:00,
2013-02-19 19:50:00,13.2,11.1,29.66,SE,145,10.0,10.0,91,0.00,,,0.01,0,Wunderground v.1.15,2013-02-20 00:50:00,
2013-02-19 19:53:00,13.1,11.0,29.67,SW,217,10.0,10.0,91,0.00,,,0.01,0,Wunderground v.1.15,2013-02-20 00:53:00,
2013-02-19 19:56:00,13.1,11.0,29.67,SSW,208,8.0,16.0,91,0.00,,,0.01,0,Wunderground v.1.15,2013-02-20 00:56:00,
2013-02-19 19:58:00,13.1,11.0,29.67,SSW,198,9.0,16.0,91,0.00,,,0.01,0,Wunderground v.1.15,2013-02-20 00:58:00,
2013-02-19 20:03:00,13.0,10.9,29.68,South,181,9.0,11.0,91,0.00,,,0.01,0,Wunderground v.1.15,2013-02-20 01:03:00,
2013-02-19 20:04:00,13.0,10.9,29.68,SSW,207,9.0,11.0,91,0.00,,,0.01,0,Wunderground v.1.15,2013-02-20 01:04:00,
2013-02-19 20:07:00,13.0,10.9,29.68,SSW,211,9.0,13.0,91,0.00,,,0.01,0,Wunderground v.1.15,2013-02-20 01:07:00,
2013-02-19 20:10:00,13.0,10.9,29.68,SSW,208,8.0,10.0,91,0.00,,,0.01,0,Wunderground v.1.15,2013-02-20 01:10:00,
2013-02-19 20:12:00,13.0,10.9,29.68,SSW,198,8.0,10.0,91,0.00,,,0.01,0,Wunderground v.1.15,2013-02-20 01:12:00,
2013-02-19 20:15:00,12.9,10.8,29.69,WSW,239,7.0,10.0,91,0.00,,,0.01,0,Wunderground v.1.15,2013-02-20 01:15:00,
2013-02-19 20:17:00,12.9,10.8,29.69,SW,214,6.0,10.0,91,0.00,,,0.01,0,Wunderground v.1.15,2013-02-20 01:17:00,
2013-02-19 20:21:00,12.8,10.7,29.69,SW,215,6.0,10.0,91,0.00,,,0.01,0,Wunderground v.1.15,2013-02-20 01:21:00,
2013-02-19 20:23:00,12.8,10.7,29.69,South,185,6.0,10.0,91,0.00,,,0.01,0,Wunderground v.1.15,2013-02-20 01:23:00,
2013-02-19 20:24:00,12.8,10.7,29.69,SW,217,6.0,10.0,91,0.00,,,0.01,0,Wunderground v.1.15,2013-02-20 01:24:00,
2013-02-19 20:27:00,12.8,10.7,29.69,West,273,5.0,10.0,91,0.00,,,0.01,0,Wunderground v.1.15,2013-02-20 01:27:00,
2013-02-19 20:30:00,12.8,10.7,29.69,SSW,210,4.0,4.0,91,0.00,,,0.01,0,Wunderground v.1.15,2013-02-20 01:30:00,
2013-02-19 20:32:00,12.8,10.7,29.69,SSW,202,3.0,4.0,91,0.00,,,0.01,0,Wunderground v.1.15,2013-02-20 01:32:00,
2013-02-19 20:33:00,12.8,10.7,29.70,SSW,211,3.0,4.0,91,0.00,,,0.01,0,Wunderground v.1.15,2013-02-20 01:33:00,
2013-02-19 20:34:00,12.8,10.7,29.69,WSW,251,3.0,4.0,91,0.00,,,0.01,0,Wunderground v.1.15,2013-02-20 01:34:00,
2013-02-19 20:38:00,12.8,10.7,29.70,SSW,212,3.0,7.0,91,0.00,,,0.01,0,Wunderground v.1.15,2013-02-20 01:38:00,
2013-02-19 20:41:00,12.8,10.7,29.70,WSW,239,4.0,5.0,91,0.00,,,0.01,0,Wunderground v.1.15,2013-02-20 01:41:00,
2013-02-19 20:45:00,12.8,10.7,29.70,SSW,203,5.0,6.0,91,0.00,,,0.01,0,Wunderground v.1.15,2013-02-20 01:45:00,
2013-02-19 20:47:00,12.7,10.6,29.71,SSW,203,4.0,6.0,91,0.00,,,0.01,0,Wunderground v.1.15,2013-02-20 01:47:00,
2013-02-19 20:48:00,12.7,10.6,29.71,SSW,200,4.0,13.0,91,0.00,,,0.01,0,Wunderground v.1.15,2013-02-20 01:48:00,
2013-02-19 20:52:00,12.5,10.4,29.71,SSW,209,6.0,10.0,91,0.00,,,0.01,0,Wunderground v.1.15,2013-02-20 01:52:00,
2013-02-19 20:53:00,12.4,10.3,29.71,SSW,196,7.0,10.0,91,0.00,,,0.01,0,Wunderground v.1.15,2013-02-20 01:53:00,
2013-02-19 20:58:00,12.2,9.8,29.72,SSW,205,8.0,10.0,90,0.00,,,0.01,0,Wunderground v.1.15,2013-02-20 01:58:00,
2013-02-19 20:59:00,12.2,9.8,29.72,South,175,7.0,10.0,90,0.00,,,0.01,0,Wunderground v.1.15,2013-02-20 01:59:00,
2013-02-19 21:01:00,12.1,10.0,29.72,SW,214,6.0,7.0,91,0.00,,,0.01,0,Wunderground v.1.15,2013-02-20 02:01:00,
2013-02-19 21:03:00,12.0,9.9,29.72,West,279,6.0,11.0,91,0.00,,,0.01,0,Wunderground v.1.15,2013-02-20 02:03:00,
2013-02-19 21:07:00,11.8,9.4,29.72,SW,227,5.0,11.0,90,0.00,,,0.01,0,Wunderground v.1.15,2013-02-20 02:07:00,
2013-02-19 21:10:00,11.8,9.7,29.72,SSW,207,5.0,7.0,91,0.00,,,0.01,0,Wunderground v.1.15,2013-02-20 02:10:00,
2013-02-19 21:11:00,11.8,9.7,29.72,SW,225,6.0,7.0,91,0.00,,,0.01,0,Wunderground v.1.15,2013-02-20 02:11:00,
2013-02-19 21:12:00,11.7,9.3,29.72,SSW,197,6.0,7.0,90,0.00,,,0.01,0,Wunderground v.1.15,2013-02-20 02:12:00,
2013-02-19 21:15:00,11.6,9.2,29.73,SSW,209,6.0,7.0,90,0.00,,,0.01,0,Wunderground v.1.15,2013-02-20 02:15:00,
2013-02-19 21:19:00,11.4,9.0,29.73,SSW,192,7.0,9.0,90,0.00,,,0.01,0,Wunderground v.1.15,2013-02-20 02:19:00,
2013-02-19 21:21:00,11.4,9.0,29.73,SSW,196,6.0,7.0,90,0.00,,,0.01,0,Wunderground v.1.15,2013-02-20 02:21:00,
2013-02-19 21:22:00,11.4,9.0,29.73,South,184,6.0,8.0,90,0.00,,,0.01,0,Wunderground v.1.15,2013-02-20 02:22:00,
2013-02-19 21:24:00,11.3,8.9,29.73,SSW,197,6.0,10.0,90,0.00,,,0.01,0,Wunderground v.1.15,2013-02-20 02:24:00,
2013-02-19 21:25:00,11.3,8.9,29.73,SSW,205,6.0,14.0,90,0.00,,,0.01,0,Wunderground v.1.15,2013-02-20 02:25:00,
2013-02-19 21:28:00,11.2,8.8,29.73,South,181,7.0,14.0,90,0.00,,,0.01,0,Wunderground v.1.15,2013-02-20 02:28:00,
2013-02-19 21:34:00,11.2,8.8,29.73,South,182,7.0,11.0,90,0.00,,,0.01,0,Wunderground v.1.15,2013-02-20 02:34:00,
2013-02-19 21:35:00,11.1,8.7,29.73,SSW,196,7.0,11.0,90,0.00,,,0.01,0,Wunderground v.1.15,2013-02-20 02:35:00,
2013-02-19 21:40:00,11.1,8.7,29.74,SSW,204,6.0,6.0,90,0.00,,,0.01,0,Wunderground v.1.15,2013-02-20 02:40:00,
2013-02-19 21:41:00,11.1,8.7,29.74,South,190,6.0,6.0,90,0.00,,,0.01,0,Wunderground v.1.15,2013-02-20 02:41:00,
2013-02-19 21:44:00,11.2,8.8,29.74,SSW,211,7.0,11.0,90,0.00,,,0.01,0,Wunderground v.1.15,2013-02-20 02:44:00,
2013-02-19 21:46:00,11.2,8.8,29.74,SSW,202,7.0,11.0,90,0.00,,,0.01,0,Wunderground v.1.15,2013-02-20 02:46:00,
2013-02-19 21:48:00,11.1,8.7,29.74,WSW,243,7.0,13.0,90,0.00,,,0.01,0,Wunderground v.1.15,2013-02-20 02:48:00,
2013-02-19 21:49:00,11.0,8.6,29.74,South,188,8.0,13.0,90,0.00,,,0.01,0,Wunderground v.1.15,2013-02-20 02:49:00,
2013-02-19 21:50:00,11.0,8.6,29.74,SSW,202,8.0,10.0,90,0.00,,,0.01,0,Wunderground v.1.15,2013-02-20 02:50:00,
2013-02-19 21:51:00,11.0,8.6,29.74,South,176,8.0,10.0,90,0.00,,,0.01,0,Wunderground v.1.15,2013-02-20 02:51:00,
2013-02-19 21:53:00,10.9,8.5,29.74,South,187,8.0,12.0,90,0.00,,,0.01,0,Wunderground v.1.15,2013-02-20 02:53:00,
2013-02-19 21:56:00,10.8,8.4,29.75,South,181,9.0,12.0,90,0.00,,,0.01,0,Wunderground v.1.15,2013-02-20 02:56:00,
2013-02-19 22:00:00,10.6,8.2,29.75,SSW,194,8.0,8.0,90,0.00,,,0.01,0,Wunderground v.1.15,2013-02-20 03:00:00,
2013-02-19 22:01:00,10.5,8.1,29.75,SSW,209,8.0,8.0,90,0.00,,,0.01,0,Wunderground v.1.15,2013-02-20 03:01:00,
2013-02-19 22:03:00,10.5,8.1,29.75,SSW,207,8.0,10.0,90,0.00,,,0.01,0,Wunderground v.1.15,2013-02-20 03:03:00,
2013-02-19 22:07:00,10.3,7.7,29.75,SW,221,8.0,10.0,89,0.00,,,0.01,0,Wunderground v.1.15,2013-02-20 03:07:00,
2013-02-19 22:08:00,10.3,7.7,29.76,SSW,205,8.0,10.0,89,0.00,,,0.01,0,Wunderground v.1.15,2013-02-20 03:08:00,
2013-02-19 22:09:00,10.3,8.0,29.76,South,191,8.0,10.0,90,0.00,,,0.01,0,Wunderground v.1.15,2013-02-20 03:09:00,
2013-02-19 22:14:00,10.1,7.5,29.76,SSW,199,7.0,8.0,89,0.00,,,0.01,0,Wunderground v.1.15,2013-02-20 03:14:00,
2013-02-19 22:15:00,10.0,7.4,29.76,SSW,196,7.0,9.0,89,0.00,,,0.01,0,Wunderground v.1.15,2013-02-20 03:15:00,
2013-02-19 22:19:00,10.0,7.4,29.76,SW,227,7.0,16.0,89,0.00,,,0.01,0,Wunderground v.1.15,2013-02-20 03:19:00,
2013-02-19 22:20:00,10.0,7.4,29.76,SSW,207,7.0,7.0,89,0.00,,,0.01,0,Wunderground v.1.15,2013-02-20 03:20:00,
2013-02-19 22:25:00,9.9,7.3,29.76,SW,227,7.0,7.0,89,0.00,,,0.01,0,Wunderground v.1.15,2013-02-20 03:25:00,
2013-02-19 22:28:00,10.0,7.7,29.77,South,184,5.0,7.0,90,0.00,,,0.01,0,Wunderground v.1.15,2013-02-20 03:28:00,
2013-02-19 22:31:00,10.0,7.7,29.77,SSW,211,6.0,11.0,90,0.00,,,0.01,0,Wunderground v.1.15,2013-02-20 03:31:00,
2013-02-19 22:34:00,10.0,7.7,29.77,SSW,208,7.0,11.0,90,0.00,,,0.01,0,Wunderground v.1.15,2013-02-20 03:34:00,
2013-02-19 22:35:00,10.0,7.4,29.77,SSW,194,7.0,11.0,89,0.00,,,0.01,0,Wunderground v.1.15,2013-02-20 03:35:00,
2013-02-19 22:39:00,9.9,7.3,29.78,North,360,7.0,11.0,89,0.00,,,0.01,0,Wunderground v.1.15,2013-02-20 03:39:00,
2013-02-19 22:40:00,9.8,7.2,29.78,SSW,203,6.0,7.0,89,0.00,,,0.01,0,Wunderground v.1.15,2013-02-20 03:40:00,
2013-02-19 22:41:00,9.8,7.2,29.78,SSW,209,6.0,8.0,89,0.00,,,0.01,0,Wunderground v.1.15,2013-02-20 03:41:00,
2013-02-19 22:43:00,9.7,7.1,29.78,SSW,202,6.0,8.0,89,0.00,,,0.01,0,Wunderground v.1.15,2013-02-20 03:43:00,
2013-02-19 22:47:00,9.7,7.1,29.78,SW,217,6.0,13.0,89,0.00,,,0.01,0,Wunderground v.1.15,2013-02-20 03:47:00,
2013-02-19 22:48:00,9.7,7.1,29.78,SW,215,6.0,13.0,89,0.00,,,0.01,0,Wunderground v.1.15,2013-02-20 03:48:00,
2013-02-19 22:52:00,9.6,7.0,29.78,SSW,194,5.0,8.0,89,0.00,,,0.01,0,Wunderground v.1.15,2013-02-20 03:52:00,
2013-02-19 22:53:00,9.7,7.1,29.78,SSW,204,5.0,8.0,89,0.00,,,0.01,0,Wunderground v.1.15,2013-02-20 03:53:00,
2013-02-19 22:58:00,9.7,7.1,29.79,SW,220,6.0,15.0,89,0.00,,,0.01,0,Wunderground v.1.15,2013-02-20 03:58:00,
2013-02-19 22:59:00,9.6,7.0,29.79,South,191,6.0,15.0,89,0.00,,,0.01,0,Wunderground v.1.15,2013-02-20 03:59:00,
2013-02-19 23:00:00,9.6,7.0,29.79,SSW,196,6.0,6.0,89,0.00,,,0.01,0,Wunderground v.1.15,2013-02-20 04:00:00,
2013-02-19 23:01:00,9.6,7.0,29.79,SW,223,7.0,8.0,89,0.00,,,0.01,0,Wunderground v.1.15,2013-02-20 04:01:00,
2013-02-19 23:05:00,9.6,7.0,29.79,SSW,209,7.0,8.0,89,0.00,,,0.01,0,Wunderground v.1.15,2013-02-20 04:05:00,
2013-02-19 23:06:00,9.6,7.0,29.80,SW,217,7.0,8.0,89,0.00,,,0.01,0,Wunderground v.1.15,2013-02-20 04:06:00,
2013-02-19 23:08:00,9.6,7.0,29.80,SSW,196,5.0,8.0,89,0.00,,,0.01,0,Wunderground v.1.15,2013-02-20 04:08:00,
2013-02-19 23:10:00,9.6,7.0,29.80,SSW,207,5.0,5.0,89,0.00,,,0.01,0,Wunderground v.1.15,2013-02-20 04:10:00,
2013-02-19 23:16:00,9.7,7.1,29.80,SW,215,5.0,10.0,89,0.00,,,0.01,0,Wunderground v.1.15,2013-02-20 04:16:00,
2013-02-19 23:17:00,9.7,7.1,29.80,SSW,201,5.0,10.0,89,0.00,,,0.01,0,Wunderground v.1.15,2013-02-20 04:17:00,
2013-02-19 23:18:00,9.6,7.0,29.80,South,181,6.0,10.0,89,0.00,,,0.01,0,Wunderground v.1.15,2013-02-20 04:18:00,
2013-02-19 23:19:00,9.6,7.0,29.81,South,184,6.0,10.0,89,0.00,,,0.01,0,Wunderground v.1.15,2013-02-20 04:19:00,
2013-02-19 23:22:00,9.6,7.0,29.81,South,188,6.0,6.0,89,0.00,,,0.01,0,Wunderground v.1.15,2013-02-20 04:22:00,
2013-02-19 23:24:00,9.6,7.0,29.81,South,190,6.0,6.0,89,0.00,,,0.01,0,Wunderground v.1.15,2013-02-20 04:24:00,
2013-02-19 23:25:00,9.6,7.0,29.81,SSW,211,6.0,9.0,89,0.00,,,0.01,0,Wunderground v.1.15,2013-02-20 04:25:00,
2013-02-19 23:28:00,9.5,6.9,29.81,SW,223,6.0,9.0,89,0.00,,,0.01,0,Wunderground v.1.15,2013-02-20 04:28:00,
2013-02-19 23:32:00,9.4,6.8,29.81,South,189,6.0,6.0,89,0.00,,,0.01,0,Wunderground v.1.15,2013-02-20 04:32:00,
2013-02-19 23:33:00,9.4,6.8,29.81,SSW,194,6.0,6.0,89,0.00,,,0.01,0,Wunderground v.1.15,2013-02-20 04:33:00,
2013-02-19 23:34:00,9.4,6.8,29.81,South,186,6.0,6.0,89,0.00,,,0.01,0,Wunderground v.1.15,2013-02-20 04:34:00,
2013-02-19 23:36:00,9.4,6.8,29.81,SSW,205,5.0,6.0,89,0.00,,,0.01,0,Wunderground v.1.15,2013-02-20 04:36:00,
2013-02-19 23:39:00,9.4,6.8,29.81,South,171,5.0,10.0,89,0.00,,,0.01,0,Wunderground v.1.15,2013-02-20 04:39:00,
2013-02-19 23:41:00,9.4,6.8,29.81,South,186,5.0,11.0,89,0.00,,,0.01,0,Wunderground v.1.15,2013-02-20 04:41:00,
2013-02-19 23:43:00,9.4,6.8,29.81,SSW,194,5.0,11.0,89,0.00,,,0.01,0,Wunderground v.1.15,2013-02-20 04:43:00,
2013-02-19 23:44:00,9.4,6.8,29.81,SW,216,5.0,11.0,89,0.00,,,0.01,0,Wunderground v.1.15,2013-02-20 04:44:00,
2013-02-19 23:49:00,9.3,6.5,29.81,SW,217,6.0,11.0,88,0.00,,,0.01,0,Wunderground v.1.15,2013-02-20 04:49:00,
2013-02-19 23:50:00,9.3,6.5,29.81,South,178,6.0,7.0,88,0.00,,,0.01,0,Wunderground v.1.15,2013-02-20 04:50:00,
2013-02-19 23:55:00,9.2,6.4,29.81,South,171,5.0,11.0,88,0.00,,,0.01,0,Wunderground v.1.15,2013-02-20 04:55:00,
2013-02-19 23:56:00,9.2,6.4,29.81,SSW,209,5.0,11.0,88,0.00,,,0.01,0,Wunderground v.1.15,2013-02-20 04:56:00,
2013-02-19 23:58:00,9.2,6.6,29.82,SSW,194,5.0,11.0,89,0.00,,,0.01,0,Wunderground v.1.15,2013-02-20 04:58:00,